<?xml version="1.0" encoding="UTF-8" standalone="no" ?>
<gpx xmlns="http://www.topografix.com/GPX/1/1" xmlns:xsi="http://www.w3.org/2001/XMLSchema-instance" xsi:schemaLocation="http://www.topografix.com/GPX/1/1 http://www.topografix.com/GPX/1/1/gpx.xsd" version="1.1" creator="VisuGPX - https://www.visugpx.com">
  <metadata>
    <name>Route 23 - Châtel light</name>
  </metadata>
  <trk>
    <name><![CDATA[Route 23 - Châtel light]]></name>
    <extensions>
      <line xmlns="http://www.topografix.com/GPX/gpx_style/0/2">
        <color>0000FF</color>
        <width>4</width>
      </line>
    </extensions>
    <trkseg>
      <trkpt lat="46.2178" lon="6.79301">
        <ele>1653.463034</ele>
        <time>2022-07-15T18:58:56.061Z</time>
      </trkpt>
      <trkpt lat="46.21801" lon="6.79251">
        <ele>1653.463034</ele>
        <time>2022-07-15T18:59:15.118Z</time>
      </trkpt>
      <trkpt lat="46.21801" lon="6.79206">
        <ele>1653.463034</ele>
        <time>2022-07-15T18:59:34.644Z</time>
      </trkpt>
      <trkpt lat="46.21809" lon="6.79178">
        <ele>1653.710466</ele>
        <time>2022-07-15T18:59:50.620Z</time>
      </trkpt>
      <trkpt lat="46.21857" lon="6.79141">
        <ele>1660.138026</ele>
        <time>2022-07-15T19:00:33.064Z</time>
      </trkpt>
      <trkpt lat="46.21865" lon="6.79116">
        <ele>1662.419698</ele>
        <time>2022-07-15T19:00:48.582Z</time>
      </trkpt>
      <trkpt lat="46.21862" lon="6.79052">
        <ele>1667.639788</ele>
        <time>2022-07-15T19:01:24.618Z</time>
      </trkpt>
      <trkpt lat="46.21866" lon="6.79005">
        <ele>1671.491717</ele>
        <time>2022-07-15T19:01:52.046Z</time>
      </trkpt>
      <trkpt lat="46.2186" lon="6.78944">
        <ele>1675.971422</ele>
        <time>2022-07-15T19:02:26.873Z</time>
      </trkpt>
      <trkpt lat="46.21871" lon="6.78894">
        <ele>1678.909071</ele>
        <time>2022-07-15T19:02:54.309Z</time>
      </trkpt>
      <trkpt lat="46.2187" lon="6.78883">
        <ele>1679.560761</ele>
        <time>2022-07-15T19:03:00.085Z</time>
      </trkpt>
      <trkpt lat="46.21857" lon="6.78866">
        <ele>1680.93192</ele>
        <time>2022-07-15T19:03:11.866Z</time>
      </trkpt>
      <trkpt lat="46.21855" lon="6.78852">
        <ele>1681.743466</ele>
        <time>2022-07-15T19:03:18.205Z</time>
      </trkpt>
      <trkpt lat="46.21884" lon="6.78799">
        <ele>1685.49124</ele>
        <time>2022-07-15T19:03:41.552Z</time>
      </trkpt>
      <trkpt lat="46.2191" lon="6.78718">
        <ele>1690.193639</ele>
        <time>2022-07-15T19:04:05.842Z</time>
      </trkpt>
      <trkpt lat="46.21931" lon="6.78691">
        <ele>1691.987831</ele>
        <time>2022-07-15T19:04:17.261Z</time>
      </trkpt>
      <trkpt lat="46.22048" lon="6.78581">
        <ele>1700.925678</ele>
        <time>2022-07-15T19:05:30.110Z</time>
      </trkpt>
      <trkpt lat="46.22064" lon="6.78552">
        <ele>1703.07458</ele>
        <time>2022-07-15T19:05:47.052Z</time>
      </trkpt>
      <trkpt lat="46.22088" lon="6.78476">
        <ele>1707.978805</ele>
        <time>2022-07-15T19:06:26.883Z</time>
      </trkpt>
      <trkpt lat="46.22145" lon="6.78389">
        <ele>1715.033589</ele>
        <time>2022-07-15T19:07:21.733Z</time>
      </trkpt>
      <trkpt lat="46.22166" lon="6.78303">
        <ele>1717.623336</ele>
        <time>2022-07-15T19:07:50.541Z</time>
      </trkpt>
      <trkpt lat="46.22183" lon="6.78275">
        <ele>1718.4768</ele>
        <time>2022-07-15T19:08:00.329Z</time>
      </trkpt>
      <trkpt lat="46.22211" lon="6.78249">
        <ele>1719.567044</ele>
        <time>2022-07-15T19:08:09.501Z</time>
      </trkpt>
      <trkpt lat="46.22219" lon="6.78242">
        <ele>1719.884113</ele>
        <time>2022-07-15T19:08:11.398Z</time>
      </trkpt>
      <trkpt lat="46.22272" lon="6.78203">
        <ele>1721.850536</ele>
        <time>2022-07-15T19:08:27.123Z</time>
      </trkpt>
      <trkpt lat="46.2233" lon="6.78127">
        <ele>1723.432526</ele>
        <time>2022-07-15T19:08:46.825Z</time>
      </trkpt>
      <trkpt lat="46.22356" lon="6.78086">
        <ele>1724.220512</ele>
        <time>2022-07-15T19:08:56.710Z</time>
      </trkpt>
      <trkpt lat="46.22359" lon="6.78042">
        <ele>1724.832012</ele>
        <time>2022-07-15T19:09:07.681Z</time>
      </trkpt>
      <trkpt lat="46.22372" lon="6.78025">
        <ele>1725.188278</ele>
        <time>2022-07-15T19:09:15.355Z</time>
      </trkpt>
      <trkpt lat="46.22402" lon="6.78016">
        <ele>1725.057504</ele>
        <time>2022-07-15T19:09:31.291Z</time>
      </trkpt>
      <trkpt lat="46.22455" lon="6.77984">
        <ele>1723.589718</ele>
        <time>2022-07-15T19:10:00.784Z</time>
      </trkpt>
      <trkpt lat="46.22462" lon="6.77973">
        <ele>1723.327293</ele>
        <time>2022-07-15T19:10:03.245Z</time>
      </trkpt>
      <trkpt lat="46.22457" lon="6.77956">
        <ele>1722.988949</ele>
        <time>2022-07-15T19:10:06.309Z</time>
      </trkpt>
      <trkpt lat="46.22408" lon="6.77913">
        <ele>1721.510094</ele>
        <time>2022-07-15T19:10:19.756Z</time>
      </trkpt>
      <trkpt lat="46.22401" lon="6.77896">
        <ele>1721.153808</ele>
        <time>2022-07-15T19:10:22.628Z</time>
      </trkpt>
      <trkpt lat="46.22402" lon="6.77864">
        <ele>1719.893817</ele>
        <time>2022-07-15T19:10:27.758Z</time>
      </trkpt>
      <trkpt lat="46.22406" lon="6.77849">
        <ele>1718.779296</ele>
        <time>2022-07-15T19:10:30.176Z</time>
      </trkpt>
      <trkpt lat="46.22424" lon="6.77804">
        <ele>1715.413423</ele>
        <time>2022-07-15T19:10:37.978Z</time>
      </trkpt>
      <trkpt lat="46.22438" lon="6.77787">
        <ele>1713.614793</ele>
        <time>2022-07-15T19:10:42.322Z</time>
      </trkpt>
      <trkpt lat="46.22462" lon="6.77775">
        <ele>1711.233379</ele>
        <time>2022-07-15T19:10:47.620Z</time>
      </trkpt>
      <trkpt lat="46.2247" lon="6.77755">
        <ele>1709.742394</ele>
        <time>2022-07-15T19:10:51.156Z</time>
      </trkpt>
      <trkpt lat="46.22467" lon="6.77737">
        <ele>1708.559187</ele>
        <time>2022-07-15T19:10:53.656Z</time>
      </trkpt>
      <trkpt lat="46.2243" lon="6.77692">
        <ele>1703.917498</ele>
        <time>2022-07-15T19:11:04.115Z</time>
      </trkpt>
      <trkpt lat="46.22434" lon="6.77679">
        <ele>1702.837996</ele>
        <time>2022-07-15T19:11:06.077Z</time>
      </trkpt>
      <trkpt lat="46.2246" lon="6.77675">
        <ele>1699.745265</ele>
        <time>2022-07-15T19:11:11.807Z</time>
      </trkpt>
      <trkpt lat="46.22488" lon="6.77683">
        <ele>1696.437554</ele>
        <time>2022-07-15T19:11:18.108Z</time>
      </trkpt>
      <trkpt lat="46.22515" lon="6.77718">
        <ele>1692.232564</ele>
        <time>2022-07-15T19:11:26.018Z</time>
      </trkpt>
      <trkpt lat="46.22516" lon="6.77763">
        <ele>1688.605419</ele>
        <time>2022-07-15T19:11:32.546Z</time>
      </trkpt>
      <trkpt lat="46.22525" lon="6.77769">
        <ele>1687.421625</ele>
        <time>2022-07-15T19:11:34.597Z</time>
      </trkpt>
      <trkpt lat="46.22574" lon="6.77692">
        <ele>1678.24692</ele>
        <time>2022-07-15T19:11:49.276Z</time>
      </trkpt>
      <trkpt lat="46.22595" lon="6.7767">
        <ele>1674.667133</ele>
        <time>2022-07-15T19:11:54.567Z</time>
      </trkpt>
      <trkpt lat="46.22618" lon="6.77617">
        <ele>1668.6667</ele>
        <time>2022-07-15T19:12:03.266Z</time>
      </trkpt>
      <trkpt lat="46.22682" lon="6.7761">
        <ele>1659.61129</ele>
        <time>2022-07-15T19:12:16.493Z</time>
      </trkpt>
      <trkpt lat="46.22725" lon="6.7758">
        <ele>1655.585048</ele>
        <time>2022-07-15T19:12:26.324Z</time>
      </trkpt>
      <trkpt lat="46.22762" lon="6.77524">
        <ele>1652.066232</ele>
        <time>2022-07-15T19:12:38.087Z</time>
      </trkpt>
      <trkpt lat="46.22814" lon="6.77525">
        <ele>1648.628128</ele>
        <time>2022-07-15T19:12:51.179Z</time>
      </trkpt>
      <trkpt lat="46.22871" lon="6.77499">
        <ele>1646.195332</ele>
        <time>2022-07-15T19:13:08.133Z</time>
      </trkpt>
      <trkpt lat="46.22884" lon="6.7747">
        <ele>1646.389864</ele>
        <time>2022-07-15T19:13:15.674Z</time>
      </trkpt>
      <trkpt lat="46.22895" lon="6.77459">
        <ele>1646.496089</ele>
        <time>2022-07-15T19:13:19.694Z</time>
      </trkpt>
      <trkpt lat="46.22908" lon="6.77451">
        <ele>1646.607757</ele>
        <time>2022-07-15T19:13:24.750Z</time>
      </trkpt>
      <trkpt lat="46.22923" lon="6.77426">
        <ele>1646.792995</ele>
        <time>2022-07-15T19:13:32.600Z</time>
      </trkpt>
      <trkpt lat="46.22906" lon="6.77391">
        <ele>1647.029002</ele>
        <time>2022-07-15T19:13:44.227Z</time>
      </trkpt>
      <trkpt lat="46.22905" lon="6.77383">
        <ele>1647.075672</ele>
        <time>2022-07-15T19:13:45.970Z</time>
      </trkpt>
      <trkpt lat="46.22909" lon="6.77378">
        <ele>1647.118381</ele>
        <time>2022-07-15T19:13:48.342Z</time>
      </trkpt>
      <trkpt lat="46.22942" lon="6.77385">
        <ele>1647.389426</ele>
        <time>2022-07-15T19:14:03.227Z</time>
      </trkpt>
      <trkpt lat="46.22945" lon="6.77385">
        <ele>1647.409636</ele>
        <time>2022-07-15T19:14:04.460Z</time>
      </trkpt>
      <trkpt lat="46.22957" lon="6.77378">
        <ele>1647.578052</ele>
        <time>2022-07-15T19:14:11.141Z</time>
      </trkpt>
      <trkpt lat="46.22966" lon="6.77365">
        <ele>1647.842677</ele>
        <time>2022-07-15T19:14:17.761Z</time>
      </trkpt>
      <trkpt lat="46.22968" lon="6.77367">
        <ele>1647.892893</ele>
        <time>2022-07-15T19:14:18.671Z</time>
      </trkpt>
      <trkpt lat="46.22969" lon="6.77368">
        <ele>1647.926601</ele>
        <time>2022-07-15T19:14:19.335Z</time>
      </trkpt>
      <trkpt lat="46.23012" lon="6.77421">
        <ele>1649.119717</ele>
        <time>2022-07-15T19:14:45.450Z</time>
      </trkpt>
      <trkpt lat="46.23058" lon="6.77454">
        <ele>1650.212331</ele>
        <time>2022-07-15T19:15:05.416Z</time>
      </trkpt>
      <trkpt lat="46.2308" lon="6.7754">
        <ele>1651.609409</ele>
        <time>2022-07-15T19:15:30.332Z</time>
      </trkpt>
      <trkpt lat="46.231" lon="6.77575">
        <ele>1652.420433</ele>
        <time>2022-07-15T19:15:43.342Z</time>
      </trkpt>
      <trkpt lat="46.2313" lon="6.77653">
        <ele>1654.01016</ele>
        <time>2022-07-15T19:16:10.192Z</time>
      </trkpt>
      <trkpt lat="46.23158" lon="6.77687">
        <ele>1654.951566</ele>
        <time>2022-07-15T19:16:27.352Z</time>
      </trkpt>
      <trkpt lat="46.23186" lon="6.77703">
        <ele>1655.728024</ele>
        <time>2022-07-15T19:16:42.174Z</time>
      </trkpt>
      <trkpt lat="46.23204" lon="6.77721">
        <ele>1656.389286</ele>
        <time>2022-07-15T19:16:53.414Z</time>
      </trkpt>
      <trkpt lat="46.23235" lon="6.77731">
        <ele>1657.378783</ele>
        <time>2022-07-15T19:17:09.914Z</time>
      </trkpt>
      <trkpt lat="46.23332" lon="6.77702">
        <ele>1660.549126</ele>
        <time>2022-07-15T19:17:56.200Z</time>
      </trkpt>
      <trkpt lat="46.23357" lon="6.77703">
        <ele>1661.347926</ele>
        <time>2022-07-15T19:18:06.317Z</time>
      </trkpt>
      <trkpt lat="46.23373" lon="6.77717">
        <ele>1661.863472</ele>
        <time>2022-07-15T19:18:17.049Z</time>
      </trkpt>
      <trkpt lat="46.23401" lon="6.77771">
        <ele>1663.076676</ele>
        <time>2022-07-15T19:18:36.811Z</time>
      </trkpt>
      <trkpt lat="46.23416" lon="6.77776">
        <ele>1663.466108</ele>
        <time>2022-07-15T19:18:48.814Z</time>
      </trkpt>
      <trkpt lat="46.23434" lon="6.77771">
        <ele>1663.945883</ele>
        <time>2022-07-15T19:18:53.975Z</time>
      </trkpt>
      <trkpt lat="46.23464" lon="6.77751">
        <ele>1664.794095</ele>
        <time>2022-07-15T19:19:08.937Z</time>
      </trkpt>
      <trkpt lat="46.23491" lon="6.77745">
        <ele>1665.483018</ele>
        <time>2022-07-15T19:19:21.896Z</time>
      </trkpt>
      <trkpt lat="46.23499" lon="6.77758">
        <ele>1665.815268</ele>
        <time>2022-07-15T19:19:25.079Z</time>
      </trkpt>
      <trkpt lat="46.23508" lon="6.7783">
        <ele>1667.170275</ele>
        <time>2022-07-15T19:19:50.209Z</time>
      </trkpt>
      <trkpt lat="46.23526" lon="6.77874">
        <ele>1668.140333</ele>
        <time>2022-07-15T19:20:05.761Z</time>
      </trkpt>
      <trkpt lat="46.23627" lon="6.77943">
        <ele>1671.238159</ele>
        <time>2022-07-15T19:20:56.263Z</time>
      </trkpt>
      <trkpt lat="46.23666" lon="6.77958">
        <ele>1672.929252</ele>
        <time>2022-07-15T19:21:16.245Z</time>
      </trkpt>
      <trkpt lat="46.23701" lon="6.77963">
        <ele>1674.40337</ele>
        <time>2022-07-15T19:21:34.638Z</time>
      </trkpt>
      <trkpt lat="46.23769" lon="6.77994">
        <ele>1677.346451</ele>
        <time>2022-07-15T19:22:13.889Z</time>
      </trkpt>
      <trkpt lat="46.2387" lon="6.78026">
        <ele>1682.940757</ele>
        <time>2022-07-15T19:23:10.488Z</time>
      </trkpt>
      <trkpt lat="46.23929" lon="6.78053">
        <ele>1686.671469</ele>
        <time>2022-07-15T19:23:45.360Z</time>
      </trkpt>
      <trkpt lat="46.23971" lon="6.78083">
        <ele>1689.480559</ele>
        <time>2022-07-15T19:24:20.822Z</time>
      </trkpt>
      <trkpt lat="46.24034" lon="6.78099">
        <ele>1696.004692</ele>
        <time>2022-07-15T19:25:11.049Z</time>
      </trkpt>
      <trkpt lat="46.24086" lon="6.78078">
        <ele>1701.541506</ele>
        <time>2022-07-15T19:25:58.320Z</time>
      </trkpt>
      <trkpt lat="46.24119" lon="6.78058">
        <ele>1705.268337</ele>
        <time>2022-07-15T19:26:30.136Z</time>
      </trkpt>
      <trkpt lat="46.24177" lon="6.78001">
        <ele>1710.882928</ele>
        <time>2022-07-15T19:27:31.468Z</time>
      </trkpt>
      <trkpt lat="46.24202" lon="6.77986">
        <ele>1712.683701</ele>
        <time>2022-07-15T19:27:54.751Z</time>
      </trkpt>
      <trkpt lat="46.24372" lon="6.77873">
        <ele>1721.484388</ele>
        <time>2022-07-15T19:29:29.090Z</time>
      </trkpt>
      <trkpt lat="46.24398" lon="6.77844">
        <ele>1722.142886</ele>
        <time>2022-07-15T19:29:38.084Z</time>
      </trkpt>
      <trkpt lat="46.24492" lon="6.77796">
        <ele>1724.098325</ele>
        <time>2022-07-15T19:30:19.217Z</time>
      </trkpt>
      <trkpt lat="46.24534" lon="6.77764">
        <ele>1724.943937</ele>
        <time>2022-07-15T19:30:38.115Z</time>
      </trkpt>
      <trkpt lat="46.2453" lon="6.77752">
        <ele>1725.111858</ele>
        <time>2022-07-15T19:30:43.037Z</time>
      </trkpt>
      <trkpt lat="46.2449" lon="6.77715">
        <ele>1725.956885</ele>
        <time>2022-07-15T19:31:04.238Z</time>
      </trkpt>
      <trkpt lat="46.24431" lon="6.77678">
        <ele>1726.259317</ele>
        <time>2022-07-15T19:31:26.972Z</time>
      </trkpt>
      <trkpt lat="46.24383" lon="6.77695">
        <ele>1724.927596</ele>
        <time>2022-07-15T19:31:45.802Z</time>
      </trkpt>
      <trkpt lat="46.24331" lon="6.77685">
        <ele>1723.508316</ele>
        <time>2022-07-15T19:31:59.439Z</time>
      </trkpt>
      <trkpt lat="46.2433" lon="6.77684">
        <ele>1723.474719</ele>
        <time>2022-07-15T19:31:59.695Z</time>
      </trkpt>
      <trkpt lat="46.24266" lon="6.77658">
        <ele>1721.209483</ele>
        <time>2022-07-15T19:32:15.447Z</time>
      </trkpt>
      <trkpt lat="46.2425" lon="6.77646">
        <ele>1719.65665</ele>
        <time>2022-07-15T19:32:19.513Z</time>
      </trkpt>
      <trkpt lat="46.2421" lon="6.77664">
        <ele>1716.210135</ele>
        <time>2022-07-15T19:32:28.735Z</time>
      </trkpt>
      <trkpt lat="46.24193" lon="6.77665">
        <ele>1714.733215</ele>
        <time>2022-07-15T19:32:32.580Z</time>
      </trkpt>
      <trkpt lat="46.24146" lon="6.77683">
        <ele>1710.680046</ele>
        <time>2022-07-15T19:32:43.018Z</time>
      </trkpt>
      <trkpt lat="46.24132" lon="6.77682">
        <ele>1709.520058</ele>
        <time>2022-07-15T19:32:46.029Z</time>
      </trkpt>
      <trkpt lat="46.24068" lon="6.7761">
        <ele>1701.478493</ele>
        <time>2022-07-15T19:33:03.847Z</time>
      </trkpt>
      <trkpt lat="46.24008" lon="6.77589">
        <ele>1694.836069</ele>
        <time>2022-07-15T19:33:17.235Z</time>
      </trkpt>
      <trkpt lat="46.23985" lon="6.77596">
        <ele>1692.281391</ele>
        <time>2022-07-15T19:33:22.171Z</time>
      </trkpt>
      <trkpt lat="46.2397" lon="6.77584">
        <ele>1690.361679</ele>
        <time>2022-07-15T19:33:25.867Z</time>
      </trkpt>
      <trkpt lat="46.23928" lon="6.77571">
        <ele>1684.991449</ele>
        <time>2022-07-15T19:33:34.592Z</time>
      </trkpt>
      <trkpt lat="46.2391" lon="6.77555">
        <ele>1681.718263</ele>
        <time>2022-07-15T19:33:38.760Z</time>
      </trkpt>
      <trkpt lat="46.23882" lon="6.77505">
        <ele>1674.671141</ele>
        <time>2022-07-15T19:33:47.829Z</time>
      </trkpt>
      <trkpt lat="46.23847" lon="6.7747">
        <ele>1667.987406</ele>
        <time>2022-07-15T19:33:56.381Z</time>
      </trkpt>
      <trkpt lat="46.23833" lon="6.77463">
        <ele>1665.75028</ele>
        <time>2022-07-15T19:33:59.220Z</time>
      </trkpt>
      <trkpt lat="46.23791" lon="6.77461">
        <ele>1659.143261</ele>
        <time>2022-07-15T19:34:07.592Z</time>
      </trkpt>
      <trkpt lat="46.23725" lon="6.77387">
        <ele>1647.216442</ele>
        <time>2022-07-15T19:34:24.348Z</time>
      </trkpt>
      <trkpt lat="46.23698" lon="6.77312">
        <ele>1638.879051</ele>
        <time>2022-07-15T19:34:36.429Z</time>
      </trkpt>
      <trkpt lat="46.23702" lon="6.77291">
        <ele>1636.756796</ele>
        <time>2022-07-15T19:34:39.526Z</time>
      </trkpt>
      <trkpt lat="46.23721" lon="6.77253">
        <ele>1632.119402</ele>
        <time>2022-07-15T19:34:46.386Z</time>
      </trkpt>
      <trkpt lat="46.23722" lon="6.77219">
        <ele>1628.9102</ele>
        <time>2022-07-15T19:34:51.151Z</time>
      </trkpt>
      <trkpt lat="46.23718" lon="6.77199">
        <ele>1626.816621</ele>
        <time>2022-07-15T19:34:54.217Z</time>
      </trkpt>
      <trkpt lat="46.237" lon="6.77161">
        <ele>1622.404883</ele>
        <time>2022-07-15T19:35:00.699Z</time>
      </trkpt>
      <trkpt lat="46.23643" lon="6.77103">
        <ele>1612.579842</ele>
        <time>2022-07-15T19:35:14.995Z</time>
      </trkpt>
      <trkpt lat="46.23607" lon="6.7708">
        <ele>1607.139951</ele>
        <time>2022-07-15T19:35:22.814Z</time>
      </trkpt>
      <trkpt lat="46.23578" lon="6.77049">
        <ele>1602.168627</ele>
        <time>2022-07-15T19:35:30.090Z</time>
      </trkpt>
      <trkpt lat="46.23564" lon="6.77043">
        <ele>1600.186134</ele>
        <time>2022-07-15T19:35:33.016Z</time>
      </trkpt>
      <trkpt lat="46.23516" lon="6.77047">
        <ele>1593.539752</ele>
        <time>2022-07-15T19:35:42.880Z</time>
      </trkpt>
      <trkpt lat="46.23469" lon="6.77073">
        <ele>1586.641664</ele>
        <time>2022-07-15T19:35:53.445Z</time>
      </trkpt>
      <trkpt lat="46.23386" lon="6.77066">
        <ele>1576.158845</ele>
        <time>2022-07-15T19:36:10.671Z</time>
      </trkpt>
      <trkpt lat="46.23341" lon="6.77019">
        <ele>1569.392896</ele>
        <time>2022-07-15T19:36:22.037Z</time>
      </trkpt>
      <trkpt lat="46.23329" lon="6.76997">
        <ele>1567.054766</ele>
        <time>2022-07-15T19:36:26.398Z</time>
      </trkpt>
      <trkpt lat="46.23335" lon="6.76919">
        <ele>1560.599965</ele>
        <time>2022-07-15T19:36:37.740Z</time>
      </trkpt>
      <trkpt lat="46.2335" lon="6.76863">
        <ele>1556.227935</ele>
        <time>2022-07-15T19:36:46.720Z</time>
      </trkpt>
      <trkpt lat="46.23369" lon="6.76829">
        <ele>1553.138729</ele>
        <time>2022-07-15T19:36:52.914Z</time>
      </trkpt>
      <trkpt lat="46.2337" lon="6.76818">
        <ele>1552.34722</ele>
        <time>2022-07-15T19:36:54.662Z</time>
      </trkpt>
      <trkpt lat="46.23359" lon="6.76793">
        <ele>1550.27835</ele>
        <time>2022-07-15T19:36:58.786Z</time>
      </trkpt>
      <trkpt lat="46.23328" lon="6.76757">
        <ele>1546.051065</ele>
        <time>2022-07-15T19:37:07.169Z</time>
      </trkpt>
      <trkpt lat="46.23321" lon="6.76733">
        <ele>1544.214209</ele>
        <time>2022-07-15T19:37:11.200Z</time>
      </trkpt>
      <trkpt lat="46.23328" lon="6.76716">
        <ele>1542.842085</ele>
        <time>2022-07-15T19:37:14.287Z</time>
      </trkpt>
      <trkpt lat="46.23354" lon="6.7669">
        <ele>1540.702622</ele>
        <time>2022-07-15T19:37:21.733Z</time>
      </trkpt>
      <trkpt lat="46.23375" lon="6.76656">
        <ele>1538.641065</ele>
        <time>2022-07-15T19:37:28.909Z</time>
      </trkpt>
      <trkpt lat="46.23382" lon="6.76629">
        <ele>1537.308117</ele>
        <time>2022-07-15T19:37:33.409Z</time>
      </trkpt>
      <trkpt lat="46.23451" lon="6.76558">
        <ele>1531.684436</ele>
        <time>2022-07-15T19:37:53.304Z</time>
      </trkpt>
      <trkpt lat="46.23476" lon="6.76518">
        <ele>1529.583363</ele>
        <time>2022-07-15T19:38:02.156Z</time>
      </trkpt>
      <trkpt lat="46.23501" lon="6.765">
        <ele>1528.159028</ele>
        <time>2022-07-15T19:38:08.403Z</time>
      </trkpt>
      <trkpt lat="46.235" lon="6.76482">
        <ele>1527.489331</ele>
        <time>2022-07-15T19:38:11.536Z</time>
      </trkpt>
      <trkpt lat="46.23482" lon="6.76454">
        <ele>1526.132387</ele>
        <time>2022-07-15T19:38:17.804Z</time>
      </trkpt>
      <trkpt lat="46.23484" lon="6.76436">
        <ele>1525.500896</ele>
        <time>2022-07-15T19:38:20.857Z</time>
      </trkpt>
      <trkpt lat="46.23521" lon="6.7643">
        <ele>1523.573023</ele>
        <time>2022-07-15T19:38:30.014Z</time>
      </trkpt>
      <trkpt lat="46.23555" lon="6.76434">
        <ele>1521.782716</ele>
        <time>2022-07-15T19:38:38.510Z</time>
      </trkpt>
      <trkpt lat="46.23589" lon="6.76426">
        <ele>1518.947199</ele>
        <time>2022-07-15T19:38:46.842Z</time>
      </trkpt>
      <trkpt lat="46.23592" lon="6.7644">
        <ele>1518.086863</ele>
        <time>2022-07-15T19:38:49.197Z</time>
      </trkpt>
      <trkpt lat="46.23577" lon="6.76451">
        <ele>1516.708688</ele>
        <time>2022-07-15T19:38:53.013Z</time>
      </trkpt>
      <trkpt lat="46.23582" lon="6.76463">
        <ele>1515.908435</ele>
        <time>2022-07-15T19:38:55.202Z</time>
      </trkpt>
      <trkpt lat="46.23609" lon="6.76445">
        <ele>1513.431006</ele>
        <time>2022-07-15T19:39:01.789Z</time>
      </trkpt>
      <trkpt lat="46.23614" lon="6.76415">
        <ele>1511.612066</ele>
        <time>2022-07-15T19:39:06.524Z</time>
      </trkpt>
      <trkpt lat="46.23641" lon="6.76337">
        <ele>1506.528272</ele>
        <time>2022-07-15T19:39:19.450Z</time>
      </trkpt>
      <trkpt lat="46.23656" lon="6.7627">
        <ele>1497.209116</ele>
        <time>2022-07-15T19:39:29.409Z</time>
      </trkpt>
      <trkpt lat="46.2369" lon="6.76227">
        <ele>1488.461691</ele>
        <time>2022-07-15T19:39:38.366Z</time>
      </trkpt>
      <trkpt lat="46.2373" lon="6.76192">
        <ele>1479.43263</ele>
        <time>2022-07-15T19:39:47.457Z</time>
      </trkpt>
      <trkpt lat="46.23754" lon="6.76181">
        <ele>1474.611213</ele>
        <time>2022-07-15T19:39:52.297Z</time>
      </trkpt>
      <trkpt lat="46.23785" lon="6.76184">
        <ele>1467.740105</ele>
        <time>2022-07-15T19:39:58.393Z</time>
      </trkpt>
      <trkpt lat="46.23875" lon="6.76245">
        <ele>1443.592002</ele>
        <time>2022-07-15T19:40:17.684Z</time>
      </trkpt>
      <trkpt lat="46.23918" lon="6.76257">
        <ele>1433.016224</ele>
        <time>2022-07-15T19:40:26.108Z</time>
      </trkpt>
      <trkpt lat="46.23989" lon="6.76305">
        <ele>1421.1734</ele>
        <time>2022-07-15T19:40:41.513Z</time>
      </trkpt>
      <trkpt lat="46.24035" lon="6.76259">
        <ele>1414.550162</ele>
        <time>2022-07-15T19:40:53.363Z</time>
      </trkpt>
      <trkpt lat="46.24076" lon="6.76249">
        <ele>1409.650714</ele>
        <time>2022-07-15T19:41:03.202Z</time>
      </trkpt>
      <trkpt lat="46.241" lon="6.76257">
        <ele>1406.737011</ele>
        <time>2022-07-15T19:41:09.159Z</time>
      </trkpt>
      <trkpt lat="46.24132" lon="6.76234">
        <ele>1405.718582</ele>
        <time>2022-07-15T19:41:18.332Z</time>
      </trkpt>
      <trkpt lat="46.24198" lon="6.76227">
        <ele>1403.860902</ele>
        <time>2022-07-15T19:41:35.960Z</time>
      </trkpt>
      <trkpt lat="46.24203" lon="6.76233">
        <ele>1403.65849</ele>
        <time>2022-07-15T19:41:37.827Z</time>
      </trkpt>
      <trkpt lat="46.24207" lon="6.76253">
        <ele>1403.263351</ele>
        <time>2022-07-15T19:41:41.733Z</time>
      </trkpt>
      <trkpt lat="46.24199" lon="6.76271">
        <ele>1402.845107</ele>
        <time>2022-07-15T19:41:45.639Z</time>
      </trkpt>
      <trkpt lat="46.24176" lon="6.76275">
        <ele>1402.175456</ele>
        <time>2022-07-15T19:41:52.248Z</time>
      </trkpt>
      <trkpt lat="46.24144" lon="6.76294">
        <ele>1400.630913</ele>
        <time>2022-07-15T19:42:01.906Z</time>
      </trkpt>
      <trkpt lat="46.24118" lon="6.76294">
        <ele>1398.968212</ele>
        <time>2022-07-15T19:42:09.069Z</time>
      </trkpt>
      <trkpt lat="46.24112" lon="6.76304">
        <ele>1398.39109</ele>
        <time>2022-07-15T19:42:11.498Z</time>
      </trkpt>
      <trkpt lat="46.24114" lon="6.76312">
        <ele>1398.003316</ele>
        <time>2022-07-15T19:42:13.057Z</time>
      </trkpt>
      <trkpt lat="46.2412" lon="6.76317">
        <ele>1397.548052</ele>
        <time>2022-07-15T19:42:14.771Z</time>
      </trkpt>
      <trkpt lat="46.24187" lon="6.76321">
        <ele>1393.295854</ele>
        <time>2022-07-15T19:42:30.102Z</time>
      </trkpt>
      <trkpt lat="46.24194" lon="6.76332">
        <ele>1392.635087</ele>
        <time>2022-07-15T19:42:32.495Z</time>
      </trkpt>
      <trkpt lat="46.24192" lon="6.7635">
        <ele>1391.800574</ele>
        <time>2022-07-15T19:42:35.363Z</time>
      </trkpt>
      <trkpt lat="46.2415" lon="6.76369">
        <ele>1387.751694</ele>
        <time>2022-07-15T19:42:44.554Z</time>
      </trkpt>
      <trkpt lat="46.24102" lon="6.76376">
        <ele>1381.391261</ele>
        <time>2022-07-15T19:42:54.503Z</time>
      </trkpt>
      <trkpt lat="46.24093" lon="6.76387">
        <ele>1379.832439</ele>
        <time>2022-07-15T19:42:56.914Z</time>
      </trkpt>
      <trkpt lat="46.24098" lon="6.76404">
        <ele>1378.149598</ele>
        <time>2022-07-15T19:42:59.541Z</time>
      </trkpt>
      <trkpt lat="46.24118" lon="6.76407">
        <ele>1375.565645</ele>
        <time>2022-07-15T19:43:03.559Z</time>
      </trkpt>
      <trkpt lat="46.24155" lon="6.76426">
        <ele>1370.383958</ele>
        <time>2022-07-15T19:43:11.597Z</time>
      </trkpt>
      <trkpt lat="46.24242" lon="6.76481">
        <ele>1360.848398</ele>
        <time>2022-07-15T19:43:31.189Z</time>
      </trkpt>
      <trkpt lat="46.24302" lon="6.76499">
        <ele>1355.512703</ele>
        <time>2022-07-15T19:43:44.486Z</time>
      </trkpt>
      <trkpt lat="46.24423" lon="6.7649">
        <ele>1349.952</ele>
        <time>2022-07-15T19:44:16.452Z</time>
      </trkpt>
      <trkpt lat="46.24434" lon="6.76484">
        <ele>1349.789007</ele>
        <time>2022-07-15T19:44:20.154Z</time>
      </trkpt>
      <trkpt lat="46.24446" lon="6.76463">
        <ele>1349.525337</ele>
        <time>2022-07-15T19:44:26.531Z</time>
      </trkpt>
      <trkpt lat="46.24451" lon="6.76427">
        <ele>1349.161304</ele>
        <time>2022-07-15T19:44:35.883Z</time>
      </trkpt>
      <trkpt lat="46.24447" lon="6.76414">
        <ele>1349.024431</ele>
        <time>2022-07-15T19:44:39.546Z</time>
      </trkpt>
      <trkpt lat="46.24411" lon="6.76358">
        <ele>1347.999892</ele>
        <time>2022-07-15T19:44:59.876Z</time>
      </trkpt>
      <trkpt lat="46.24407" lon="6.76322">
        <ele>1346.701829</ele>
        <time>2022-07-15T19:45:05.738Z</time>
      </trkpt>
      <trkpt lat="46.24412" lon="6.76298">
        <ele>1345.805957</ele>
        <time>2022-07-15T19:45:09.776Z</time>
      </trkpt>
      <trkpt lat="46.24461" lon="6.76174">
        <ele>1340.671617</ele>
        <time>2022-07-15T19:45:33.018Z</time>
      </trkpt>
      <trkpt lat="46.24472" lon="6.76124">
        <ele>1338.681565</ele>
        <time>2022-07-15T19:45:41.279Z</time>
      </trkpt>
      <trkpt lat="46.24459" lon="6.75961">
        <ele>1330.073209</ele>
        <time>2022-07-15T19:46:06.779Z</time>
      </trkpt>
      <trkpt lat="46.24459" lon="6.75901">
        <ele>1326.920304</ele>
        <time>2022-07-15T19:46:15.579Z</time>
      </trkpt>
      <trkpt lat="46.24456" lon="6.75877">
        <ele>1325.674151</ele>
        <time>2022-07-15T19:46:20.036Z</time>
      </trkpt>
      <trkpt lat="46.24449" lon="6.75829">
        <ele>1323.817535</ele>
        <time>2022-07-15T19:46:27.781Z</time>
      </trkpt>
      <trkpt lat="46.24455" lon="6.75818">
        <ele>1323.30797</ele>
        <time>2022-07-15T19:46:30.174Z</time>
      </trkpt>
      <trkpt lat="46.24465" lon="6.75819">
        <ele>1322.780683</ele>
        <time>2022-07-15T19:46:32.230Z</time>
      </trkpt>
      <trkpt lat="46.24477" lon="6.75855">
        <ele>1321.337285</ele>
        <time>2022-07-15T19:46:39.325Z</time>
      </trkpt>
      <trkpt lat="46.24488" lon="6.75866">
        <ele>1320.626243</ele>
        <time>2022-07-15T19:46:42.194Z</time>
      </trkpt>
      <trkpt lat="46.24505" lon="6.75857">
        <ele>1319.650404</ele>
        <time>2022-07-15T19:46:49.906Z</time>
      </trkpt>
      <trkpt lat="46.24509" lon="6.75833">
        <ele>1318.764449</ele>
        <time>2022-07-15T19:46:53.475Z</time>
      </trkpt>
      <trkpt lat="46.24506" lon="6.75801">
        <ele>1317.577687</ele>
        <time>2022-07-15T19:47:00.763Z</time>
      </trkpt>
      <trkpt lat="46.24505" lon="6.75796">
        <ele>1317.392484</ele>
        <time>2022-07-15T19:47:01.485Z</time>
      </trkpt>
      <trkpt lat="46.24487" lon="6.75731">
        <ele>1314.545693</ele>
        <time>2022-07-15T19:47:12.929Z</time>
      </trkpt>
      <trkpt lat="46.24445" lon="6.75682">
        <ele>1310.916929</ele>
        <time>2022-07-15T19:47:26.677Z</time>
      </trkpt>
      <trkpt lat="46.24438" lon="6.75659">
        <ele>1309.753959</ele>
        <time>2022-07-15T19:47:30.097Z</time>
      </trkpt>
      <trkpt lat="46.24439" lon="6.75602">
        <ele>1307.112182</ele>
        <time>2022-07-15T19:47:39.184Z</time>
      </trkpt>
      <trkpt lat="46.24412" lon="6.75543">
        <ele>1303.788717</ele>
        <time>2022-07-15T19:47:50.917Z</time>
      </trkpt>
      <trkpt lat="46.24389" lon="6.75482">
        <ele>1297.151928</ele>
        <time>2022-07-15T19:48:01.978Z</time>
      </trkpt>
      <trkpt lat="46.24389" lon="6.75472">
        <ele>1296.281311</ele>
        <time>2022-07-15T19:48:03.202Z</time>
      </trkpt>
      <trkpt lat="46.24394" lon="6.75465">
        <ele>1295.286084</ele>
        <time>2022-07-15T19:48:04.628Z</time>
      </trkpt>
      <trkpt lat="46.24402" lon="6.75466">
        <ele>1294.161643</ele>
        <time>2022-07-15T19:48:06.626Z</time>
      </trkpt>
      <trkpt lat="46.24431" lon="6.75529">
        <ele>1286.990454</ele>
        <time>2022-07-15T19:48:17.503Z</time>
      </trkpt>
      <trkpt lat="46.24476" lon="6.75559">
        <ele>1280.200893</ele>
        <time>2022-07-15T19:48:27.184Z</time>
      </trkpt>
      <trkpt lat="46.2456" lon="6.75572">
        <ele>1262.691541</ele>
        <time>2022-07-15T19:48:43.572Z</time>
      </trkpt>
      <trkpt lat="46.24586" lon="6.75577">
        <ele>1256.892676</ele>
        <time>2022-07-15T19:48:48.827Z</time>
      </trkpt>
      <trkpt lat="46.24639" lon="6.75566">
        <ele>1245.617529</ele>
        <time>2022-07-15T19:48:59.052Z</time>
      </trkpt>
      <trkpt lat="46.24661" lon="6.75554">
        <ele>1240.53206</ele>
        <time>2022-07-15T19:49:03.690Z</time>
      </trkpt>
      <trkpt lat="46.24692" lon="6.75534">
        <ele>1234.805947</ele>
        <time>2022-07-15T19:49:10.212Z</time>
      </trkpt>
      <trkpt lat="46.2473" lon="6.7553">
        <ele>1228.351998</ele>
        <time>2022-07-15T19:49:17.605Z</time>
      </trkpt>
      <trkpt lat="46.24753" lon="6.75518">
        <ele>1224.203253</ele>
        <time>2022-07-15T19:49:22.436Z</time>
      </trkpt>
      <trkpt lat="46.24755" lon="6.75516">
        <ele>1223.742677</ele>
        <time>2022-07-15T19:49:22.732Z</time>
      </trkpt>
      <trkpt lat="46.24765" lon="6.7551">
        <ele>1221.97676</ele>
        <time>2022-07-15T19:49:23.896Z</time>
      </trkpt>
      <trkpt lat="46.24799" lon="6.7549">
        <ele>1215.665751</ele>
        <time>2022-07-15T19:49:28.118Z</time>
      </trkpt>
      <trkpt lat="46.24816" lon="6.7548">
        <ele>1212.538331</ele>
        <time>2022-07-15T19:49:30.294Z</time>
      </trkpt>
      <trkpt lat="46.24867" lon="6.75446">
        <ele>1207.260152</ele>
        <time>2022-07-15T19:49:37.133Z</time>
      </trkpt>
      <trkpt lat="46.24869" lon="6.75444">
        <ele>1207.083756</ele>
        <time>2022-07-15T19:49:37.442Z</time>
      </trkpt>
      <trkpt lat="46.24874" lon="6.75437">
        <ele>1206.569219</ele>
        <time>2022-07-15T19:49:38.345Z</time>
      </trkpt>
      <trkpt lat="46.24877" lon="6.75434">
        <ele>1206.341695</ele>
        <time>2022-07-15T19:49:38.748Z</time>
      </trkpt>
      <trkpt lat="46.2489" lon="6.75418">
        <ele>1205.139371</ele>
        <time>2022-07-15T19:49:40.909Z</time>
      </trkpt>
      <trkpt lat="46.24905" lon="6.754">
        <ele>1203.831478</ele>
        <time>2022-07-15T19:49:43.306Z</time>
      </trkpt>
      <trkpt lat="46.24965" lon="6.75349">
        <ele>1198.986107</ele>
        <time>2022-07-15T19:49:52.537Z</time>
      </trkpt>
      <trkpt lat="46.25003" lon="6.75316">
        <ele>1196.623972</ele>
        <time>2022-07-15T19:49:58.664Z</time>
      </trkpt>
      <trkpt lat="46.25032" lon="6.75288">
        <ele>1195.15616</ele>
        <time>2022-07-15T19:50:03.666Z</time>
      </trkpt>
      <trkpt lat="46.25045" lon="6.7528">
        <ele>1194.559572</ele>
        <time>2022-07-15T19:50:05.689Z</time>
      </trkpt>
      <trkpt lat="46.25098" lon="6.7525">
        <ele>1192.198073</ele>
        <time>2022-07-15T19:50:13.470Z</time>
      </trkpt>
      <trkpt lat="46.25122" lon="6.7524">
        <ele>1191.138186</ele>
        <time>2022-07-15T19:50:16.861Z</time>
      </trkpt>
      <trkpt lat="46.25144" lon="6.75239">
        <ele>1190.20295</ele>
        <time>2022-07-15T19:50:19.876Z</time>
      </trkpt>
      <trkpt lat="46.25175" lon="6.7523">
        <ele>1189.040667</ele>
        <time>2022-07-15T19:50:24.154Z</time>
      </trkpt>
      <trkpt lat="46.25196" lon="6.75205">
        <ele>1188.041591</ele>
        <time>2022-07-15T19:50:27.924Z</time>
      </trkpt>
      <trkpt lat="46.25223" lon="6.75171">
        <ele>1186.718002</ele>
        <time>2022-07-15T19:50:33.016Z</time>
      </trkpt>
      <trkpt lat="46.25257" lon="6.75123">
        <ele>1184.984574</ele>
        <time>2022-07-15T19:50:39.718Z</time>
      </trkpt>
      <trkpt lat="46.2527" lon="6.75087">
        <ele>1183.949122</ele>
        <time>2022-07-15T19:50:43.664Z</time>
      </trkpt>
      <trkpt lat="46.25293" lon="6.74975">
        <ele>1182.749662</ele>
        <time>2022-07-15T19:50:55.585Z</time>
      </trkpt>
      <trkpt lat="46.25307" lon="6.74933">
        <ele>1182.370543</ele>
        <time>2022-07-15T19:51:01.062Z</time>
      </trkpt>
      <trkpt lat="46.25309" lon="6.74927">
        <ele>1182.317449</ele>
        <time>2022-07-15T19:51:01.916Z</time>
      </trkpt>
      <trkpt lat="46.25386" lon="6.74804">
        <ele>1182.019864</ele>
        <time>2022-07-15T19:51:25.483Z</time>
      </trkpt>
      <trkpt lat="46.25431" lon="6.74754">
        <ele>1182.752277</ele>
        <time>2022-07-15T19:51:40.353Z</time>
      </trkpt>
      <trkpt lat="46.25443" lon="6.74733">
        <ele>1182.99884</ele>
        <time>2022-07-15T19:51:47.056Z</time>
      </trkpt>
      <trkpt lat="46.25479" lon="6.74707">
        <ele>1183.532369</ele>
        <time>2022-07-15T19:52:02.023Z</time>
      </trkpt>
      <trkpt lat="46.25499" lon="6.74697">
        <ele>1183.808632</ele>
        <time>2022-07-15T19:52:09.299Z</time>
      </trkpt>
      <trkpt lat="46.2553" lon="6.74696">
        <ele>1183.937046</ele>
        <time>2022-07-15T19:52:19.508Z</time>
      </trkpt>
      <trkpt lat="46.25572" lon="6.747">
        <ele>1184.10407</ele>
        <time>2022-07-15T19:52:31.664Z</time>
      </trkpt>
      <trkpt lat="46.25625" lon="6.74692">
        <ele>1184.315463</ele>
        <time>2022-07-15T19:52:42.057Z</time>
      </trkpt>
      <trkpt lat="46.25634" lon="6.74689">
        <ele>1184.351542</ele>
        <time>2022-07-15T19:52:44.266Z</time>
      </trkpt>
      <trkpt lat="46.2565" lon="6.74671">
        <ele>1184.43117</ele>
        <time>2022-07-15T19:52:47.745Z</time>
      </trkpt>
      <trkpt lat="46.25686" lon="6.74563">
        <ele>1185.000249</ele>
        <time>2022-07-15T19:53:03.506Z</time>
      </trkpt>
      <trkpt lat="46.2569" lon="6.74555">
        <ele>1185.056052</ele>
        <time>2022-07-15T19:53:04.845Z</time>
      </trkpt>
      <trkpt lat="46.25719" lon="6.74507">
        <ele>1185.411598</ele>
        <time>2022-07-15T19:53:16.391Z</time>
      </trkpt>
      <trkpt lat="46.25776" lon="6.74467">
        <ele>1185.931154</ele>
        <time>2022-07-15T19:53:32.878Z</time>
      </trkpt>
      <trkpt lat="46.25835" lon="6.74467">
        <ele>1186.145718</ele>
        <time>2022-07-15T19:53:52.225Z</time>
      </trkpt>
      <trkpt lat="46.25871" lon="6.74448">
        <ele>1186.264791</ele>
        <time>2022-07-15T19:54:06.348Z</time>
      </trkpt>
      <trkpt lat="46.25892" lon="6.74445">
        <ele>1186.328543</ele>
        <time>2022-07-15T19:54:14.483Z</time>
      </trkpt>
      <trkpt lat="46.25979" lon="6.74482">
        <ele>1183.716287</ele>
        <time>2022-07-15T19:54:30.003Z</time>
      </trkpt>
      <trkpt lat="46.26026" lon="6.74531">
        <ele>1176.03828</ele>
        <time>2022-07-15T19:54:37.182Z</time>
      </trkpt>
      <trkpt lat="46.2605" lon="6.7453">
        <ele>1172.856216</ele>
        <time>2022-07-15T19:54:40.074Z</time>
      </trkpt>
      <trkpt lat="46.26066" lon="6.74529">
        <ele>1170.708697</ele>
        <time>2022-07-15T19:54:42.046Z</time>
      </trkpt>
      <trkpt lat="46.2607" lon="6.74526">
        <ele>1170.093862</ele>
        <time>2022-07-15T19:54:42.595Z</time>
      </trkpt>
      <trkpt lat="46.26076" lon="6.74519">
        <ele>1169.126778</ele>
        <time>2022-07-15T19:54:43.468Z</time>
      </trkpt>
      <trkpt lat="46.26085" lon="6.74518">
        <ele>1167.918625</ele>
        <time>2022-07-15T19:54:44.539Z</time>
      </trkpt>
      <trkpt lat="46.26117" lon="6.74488">
        <ele>1162.845107</ele>
        <time>2022-07-15T19:54:49.065Z</time>
      </trkpt>
      <trkpt lat="46.26129" lon="6.74477">
        <ele>1160.197307</ele>
        <time>2022-07-15T19:54:50.728Z</time>
      </trkpt>
      <trkpt lat="46.26146" lon="6.74434">
        <ele>1153.501547</ele>
        <time>2022-07-15T19:54:57.488Z</time>
      </trkpt>
      <trkpt lat="46.26151" lon="6.74423">
        <ele>1151.798637</ele>
        <time>2022-07-15T19:54:58.809Z</time>
      </trkpt>
      <trkpt lat="46.26161" lon="6.74367">
        <ele>1144.178099</ele>
        <time>2022-07-15T19:55:04.728Z</time>
      </trkpt>
      <trkpt lat="46.2616" lon="6.74347">
        <ele>1141.407013</ele>
        <time>2022-07-15T19:55:06.881Z</time>
      </trkpt>
      <trkpt lat="46.26153" lon="6.74343">
        <ele>1140.070418</ele>
        <time>2022-07-15T19:55:07.927Z</time>
      </trkpt>
      <trkpt lat="46.26169" lon="6.74257">
        <ele>1128.140435</ele>
        <time>2022-07-15T19:55:15.317Z</time>
      </trkpt>
      <trkpt lat="46.26209" lon="6.74182">
        <ele>1121.269367</ele>
        <time>2022-07-15T19:55:23.442Z</time>
      </trkpt>
      <trkpt lat="46.26211" lon="6.74179">
        <ele>1121.044237</ele>
        <time>2022-07-15T19:55:23.710Z</time>
      </trkpt>
      <trkpt lat="46.26214" lon="6.74174">
        <ele>1120.546438</ele>
        <time>2022-07-15T19:55:24.322Z</time>
      </trkpt>
      <trkpt lat="46.26223" lon="6.74116">
        <ele>1116.228768</ele>
        <time>2022-07-15T19:55:29.774Z</time>
      </trkpt>
      <trkpt lat="46.26233" lon="6.74096">
        <ele>1114.517667</ele>
        <time>2022-07-15T19:55:32.016Z</time>
      </trkpt>
      <trkpt lat="46.26278" lon="6.74058">
        <ele>1109.052452</ele>
        <time>2022-07-15T19:55:38.848Z</time>
      </trkpt>
      <trkpt lat="46.26311" lon="6.74045">
        <ele>1105.741868</ele>
        <time>2022-07-15T19:55:43.264Z</time>
      </trkpt>
      <trkpt lat="46.26369" lon="6.73998">
        <ele>1099.344179</ele>
        <time>2022-07-15T19:55:51.773Z</time>
      </trkpt>
      <trkpt lat="46.26374" lon="6.73988">
        <ele>1098.520961</ele>
        <time>2022-07-15T19:55:52.855Z</time>
      </trkpt>
      <trkpt lat="46.26374" lon="6.73972">
        <ele>1097.404591</ele>
        <time>2022-07-15T19:55:54.345Z</time>
      </trkpt>
      <trkpt lat="46.26367" lon="6.73946">
        <ele>1095.557073</ele>
        <time>2022-07-15T19:55:56.740Z</time>
      </trkpt>
      <trkpt lat="46.2637" lon="6.73927">
        <ele>1094.222939</ele>
        <time>2022-07-15T19:55:58.493Z</time>
      </trkpt>
      <trkpt lat="46.26407" lon="6.73886">
        <ele>1090.008456</ele>
        <time>2022-07-15T19:56:04.304Z</time>
      </trkpt>
      <trkpt lat="46.26417" lon="6.73851">
        <ele>1087.81919</ele>
        <time>2022-07-15T19:56:07.593Z</time>
      </trkpt>
      <trkpt lat="46.26435" lon="6.73695">
        <ele>1078.652411</ele>
        <time>2022-07-15T19:56:21.911Z</time>
      </trkpt>
      <trkpt lat="46.2644" lon="6.73671">
        <ele>1077.218161</ele>
        <time>2022-07-15T19:56:24.317Z</time>
      </trkpt>
      <trkpt lat="46.26451" lon="6.73662">
        <ele>1076.420163</ele>
        <time>2022-07-15T19:56:26.350Z</time>
      </trkpt>
      <trkpt lat="46.2648" lon="6.73613">
        <ele>1074.181838</ele>
        <time>2022-07-15T19:56:32.998Z</time>
      </trkpt>
      <trkpt lat="46.26498" lon="6.73563">
        <ele>1072.194437</ele>
        <time>2022-07-15T19:56:38.954Z</time>
      </trkpt>
      <trkpt lat="46.26511" lon="6.73511">
        <ele>1070.284206</ele>
        <time>2022-07-15T19:56:44.779Z</time>
      </trkpt>
      <trkpt lat="46.2652" lon="6.73482">
        <ele>1069.142883</ele>
        <time>2022-07-15T19:56:48.501Z</time>
      </trkpt>
      <trkpt lat="46.26506" lon="6.73447">
        <ele>1067.732291</ele>
        <time>2022-07-15T19:56:55.181Z</time>
      </trkpt>
      <trkpt lat="46.26519" lon="6.73395">
        <ele>1065.124232</ele>
        <time>2022-07-15T19:57:00.633Z</time>
      </trkpt>
      <trkpt lat="46.2653" lon="6.73353">
        <ele>1063.037078</ele>
        <time>2022-07-15T19:57:04.891Z</time>
      </trkpt>
      <trkpt lat="46.26544" lon="6.73319">
        <ele>1061.197752</ele>
        <time>2022-07-15T19:57:08.518Z</time>
      </trkpt>
      <trkpt lat="46.26564" lon="6.73291">
        <ele>1059.303745</ele>
        <time>2022-07-15T19:57:12.149Z</time>
      </trkpt>
      <trkpt lat="46.26632" lon="6.73203">
        <ele>1053.202111</ele>
        <time>2022-07-15T19:57:24.222Z</time>
      </trkpt>
      <trkpt lat="46.26681" lon="6.73144">
        <ele>1048.967469</ele>
        <time>2022-07-15T19:57:33.026Z</time>
      </trkpt>
      <trkpt lat="46.26719" lon="6.73117">
        <ele>1046.163948</ele>
        <time>2022-07-15T19:57:38.878Z</time>
      </trkpt>
      <trkpt lat="46.26754" lon="6.73028">
        <ele>1041.482737</ele>
        <time>2022-07-15T19:57:48.404Z</time>
      </trkpt>
      <trkpt lat="46.2681" lon="6.72999">
        <ele>1037.530707</ele>
        <time>2022-07-15T19:57:56.526Z</time>
      </trkpt>
      <trkpt lat="46.26836" lon="6.72935">
        <ele>1034.096665</ele>
        <time>2022-07-15T19:58:03.508Z</time>
      </trkpt>
      <trkpt lat="46.27015" lon="6.72743">
        <ele>1017.193797</ele>
        <time>2022-07-15T19:58:32.993Z</time>
      </trkpt>
      <trkpt lat="46.27117" lon="6.72674">
        <ele>1008.460035</ele>
        <time>2022-07-15T19:58:47.827Z</time>
      </trkpt>
      <trkpt lat="46.27159" lon="6.72638">
        <ele>1004.650945</ele>
        <time>2022-07-15T19:58:54.284Z</time>
      </trkpt>
      <trkpt lat="46.27201" lon="6.72576">
        <ele>1000.87009</ele>
        <time>2022-07-15T19:59:02.217Z</time>
      </trkpt>
      <trkpt lat="46.27234" lon="6.72501">
        <ele>997.178618</ele>
        <time>2022-07-15T19:59:10.567Z</time>
      </trkpt>
      <trkpt lat="46.27254" lon="6.72472">
        <ele>995.454867</ele>
        <time>2022-07-15T19:59:14.570Z</time>
      </trkpt>
      <trkpt lat="46.2729" lon="6.72424">
        <ele>992.747762</ele>
        <time>2022-07-15T19:59:21.524Z</time>
      </trkpt>
      <trkpt lat="46.27307" lon="6.72409">
        <ele>992.124734</ele>
        <time>2022-07-15T19:59:24.524Z</time>
      </trkpt>
      <trkpt lat="46.27343" lon="6.72386">
        <ele>990.845232</ele>
        <time>2022-07-15T19:59:31.008Z</time>
      </trkpt>
      <trkpt lat="46.27403" lon="6.72349">
        <ele>988.742871</ele>
        <time>2022-07-15T19:59:41.722Z</time>
      </trkpt>
      <trkpt lat="46.27439" lon="6.72347">
        <ele>987.589613</ele>
        <time>2022-07-15T19:59:47.508Z</time>
      </trkpt>
      <trkpt lat="46.27461" lon="6.72338">
        <ele>986.363286</ele>
        <time>2022-07-15T19:59:50.840Z</time>
      </trkpt>
      <trkpt lat="46.27509" lon="6.72317">
        <ele>982.413445</ele>
        <time>2022-07-15T19:59:57.712Z</time>
      </trkpt>
      <trkpt lat="46.27534" lon="6.72308">
        <ele>980.476826</ele>
        <time>2022-07-15T20:00:01.001Z</time>
      </trkpt>
      <trkpt lat="46.27573" lon="6.7231">
        <ele>977.415934</ele>
        <time>2022-07-15T20:00:06.181Z</time>
      </trkpt>
      <trkpt lat="46.27602" lon="6.72271">
        <ele>974.330218</ele>
        <time>2022-07-15T20:00:11.289Z</time>
      </trkpt>
      <trkpt lat="46.27605" lon="6.72258">
        <ele>973.618042</ele>
        <time>2022-07-15T20:00:12.414Z</time>
      </trkpt>
      <trkpt lat="46.27618" lon="6.72238">
        <ele>971.572632</ele>
        <time>2022-07-15T20:00:14.835Z</time>
      </trkpt>
      <trkpt lat="46.27703" lon="6.72201">
        <ele>961.286469</ele>
        <time>2022-07-15T20:00:25.830Z</time>
      </trkpt>
      <trkpt lat="46.27774" lon="6.72185">
        <ele>952.993128</ele>
        <time>2022-07-15T20:00:34.638Z</time>
      </trkpt>
      <trkpt lat="46.27777" lon="6.72185">
        <ele>952.582446</ele>
        <time>2022-07-15T20:00:35.088Z</time>
      </trkpt>
      <trkpt lat="46.27779" lon="6.72184">
        <ele>952.330103</ele>
        <time>2022-07-15T20:00:35.388Z</time>
      </trkpt>
      <trkpt lat="46.27805" lon="6.72176">
        <ele>949.990957</ele>
        <time>2022-07-15T20:00:38.626Z</time>
      </trkpt>
      <trkpt lat="46.2785" lon="6.72146">
        <ele>945.518281</ele>
        <time>2022-07-15T20:00:44.904Z</time>
      </trkpt>
      <trkpt lat="46.27859" lon="6.72119">
        <ele>943.69989</ele>
        <time>2022-07-15T20:00:47.434Z</time>
      </trkpt>
      <trkpt lat="46.27874" lon="6.72076">
        <ele>940.722252</ele>
        <time>2022-07-15T20:00:51.725Z</time>
      </trkpt>
      <trkpt lat="46.27888" lon="6.72056">
        <ele>938.917232</ele>
        <time>2022-07-15T20:00:54.445Z</time>
      </trkpt>
      <trkpt lat="46.27909" lon="6.72042">
        <ele>936.879249</ele>
        <time>2022-07-15T20:00:57.412Z</time>
      </trkpt>
      <trkpt lat="46.27923" lon="6.72034">
        <ele>936.302147</ele>
        <time>2022-07-15T20:00:59.669Z</time>
      </trkpt>
      <trkpt lat="46.27928" lon="6.72031">
        <ele>936.34622</ele>
        <time>2022-07-15T20:01:00.490Z</time>
      </trkpt>
      <trkpt lat="46.27933" lon="6.72029">
        <ele>936.387332</ele>
        <time>2022-07-15T20:01:01.268Z</time>
      </trkpt>
      <trkpt lat="46.27939" lon="6.72151">
        <ele>937.017439</ele>
        <time>2022-07-15T20:01:19.845Z</time>
      </trkpt>
      <trkpt lat="46.27944" lon="6.72197">
        <ele>937.253151</ele>
        <time>2022-07-15T20:01:31.661Z</time>
      </trkpt>
      <trkpt lat="46.27952" lon="6.72226">
        <ele>937.41579</ele>
        <time>2022-07-15T20:01:41.100Z</time>
      </trkpt>
      <trkpt lat="46.27964" lon="6.72251">
        <ele>937.573364</ele>
        <time>2022-07-15T20:01:50.047Z</time>
      </trkpt>
      <trkpt lat="46.27956" lon="6.72281">
        <ele>938.123724</ele>
        <time>2022-07-15T20:02:01.202Z</time>
      </trkpt>
      <trkpt lat="46.27972" lon="6.72336">
        <ele>939.14949</ele>
        <time>2022-07-15T20:02:18.536Z</time>
      </trkpt>
      <trkpt lat="46.27985" lon="6.7238">
        <ele>939.99289</ele>
        <time>2022-07-15T20:02:32.279Z</time>
      </trkpt>
      <trkpt lat="46.28065" lon="6.72583">
        <ele>941.234081</ele>
        <time>2022-07-15T20:03:25.735Z</time>
      </trkpt>
      <trkpt lat="46.28068" lon="6.72584">
        <ele>941.20446</ele>
        <time>2022-07-15T20:03:26.299Z</time>
      </trkpt>
      <trkpt lat="46.28081" lon="6.72587">
        <ele>941.05838</ele>
        <time>2022-07-15T20:03:30.412Z</time>
      </trkpt>
      <trkpt lat="46.28154" lon="6.72547">
        <ele>940.217</ele>
        <time>2022-07-15T20:03:50.870Z</time>
      </trkpt>
      <trkpt lat="46.28162" lon="6.72549">
        <ele>940.149651</ele>
        <time>2022-07-15T20:03:53.595Z</time>
      </trkpt>
      <trkpt lat="46.28168" lon="6.72561">
        <ele>940.705519</ele>
        <time>2022-07-15T20:03:55.773Z</time>
      </trkpt>
      <trkpt lat="46.28161" lon="6.72631">
        <ele>943.494719</ele>
        <time>2022-07-15T20:04:13.996Z</time>
      </trkpt>
      <trkpt lat="46.28162" lon="6.72667">
        <ele>944.908725</ele>
        <time>2022-07-15T20:04:26.103Z</time>
      </trkpt>
      <trkpt lat="46.28177" lon="6.72741">
        <ele>947.899867</ele>
        <time>2022-07-15T20:05:07.968Z</time>
      </trkpt>
      <trkpt lat="46.28175" lon="6.7277">
        <ele>949.018527</ele>
        <time>2022-07-15T20:05:19.513Z</time>
      </trkpt>
      <trkpt lat="46.28152" lon="6.72818">
        <ele>952.892858</ele>
        <time>2022-07-15T20:05:59.314Z</time>
      </trkpt>
      <trkpt lat="46.28151" lon="6.7285">
        <ele>955.98893</ele>
        <time>2022-07-15T20:06:24.228Z</time>
      </trkpt>
      <trkpt lat="46.28141" lon="6.72893">
        <ele>960.321767</ele>
        <time>2022-07-15T20:06:57.975Z</time>
      </trkpt>
      <trkpt lat="46.2814" lon="6.7292">
        <ele>962.861997</ele>
        <time>2022-07-15T20:07:15.243Z</time>
      </trkpt>
      <trkpt lat="46.28155" lon="6.73021">
        <ele>972.803067</ele>
        <time>2022-07-15T20:08:37.000Z</time>
      </trkpt>
      <trkpt lat="46.28157" lon="6.73081">
        <ele>976.039562</ele>
        <time>2022-07-15T20:09:22.187Z</time>
      </trkpt>
      <trkpt lat="46.28168" lon="6.73165">
        <ele>977.841141</ele>
        <time>2022-07-15T20:09:56.008Z</time>
      </trkpt>
      <trkpt lat="46.28172" lon="6.73253">
        <ele>979.730067</ele>
        <time>2022-07-15T20:10:22.324Z</time>
      </trkpt>
      <trkpt lat="46.28185" lon="6.73294">
        <ele>980.685004</ele>
        <time>2022-07-15T20:10:29.888Z</time>
      </trkpt>
      <trkpt lat="46.28199" lon="6.73312">
        <ele>979.186787</ele>
        <time>2022-07-15T20:10:34.098Z</time>
      </trkpt>
      <trkpt lat="46.283" lon="6.73346">
        <ele>966.791598</ele>
        <time>2022-07-15T20:10:55.355Z</time>
      </trkpt>
      <trkpt lat="46.28315" lon="6.73358">
        <ele>964.739019</ele>
        <time>2022-07-15T20:10:58.717Z</time>
      </trkpt>
      <trkpt lat="46.28353" lon="6.73428">
        <ele>958.437816</ele>
        <time>2022-07-15T20:11:11.439Z</time>
      </trkpt>
      <trkpt lat="46.28393" lon="6.73538">
        <ele>953.669978</ele>
        <time>2022-07-15T20:11:30.342Z</time>
      </trkpt>
      <trkpt lat="46.28399" lon="6.73546">
        <ele>953.177207</ele>
        <time>2022-07-15T20:11:32.457Z</time>
      </trkpt>
      <trkpt lat="46.28413" lon="6.73594">
        <ele>951.184103</ele>
        <time>2022-07-15T20:11:42.092Z</time>
      </trkpt>
      <trkpt lat="46.28416" lon="6.73643">
        <ele>949.350509</ele>
        <time>2022-07-15T20:11:56.440Z</time>
      </trkpt>
      <trkpt lat="46.28427" lon="6.73754">
        <ele>951.420292</ele>
        <time>2022-07-15T20:12:36.085Z</time>
      </trkpt>
      <trkpt lat="46.28493" lon="6.73876">
        <ele>954.242493</ele>
        <time>2022-07-15T20:13:25.569Z</time>
      </trkpt>
      <trkpt lat="46.28533" lon="6.74045">
        <ele>956.516189</ele>
        <time>2022-07-15T20:14:13.213Z</time>
      </trkpt>
      <trkpt lat="46.28529" lon="6.74098">
        <ele>957.194566</ele>
        <time>2022-07-15T20:14:28.450Z</time>
      </trkpt>
      <trkpt lat="46.28549" lon="6.74142">
        <ele>958.055244</ele>
        <time>2022-07-15T20:14:44.141Z</time>
      </trkpt>
      <trkpt lat="46.28562" lon="6.74176">
        <ele>958.779116</ele>
        <time>2022-07-15T20:14:56.396Z</time>
      </trkpt>
      <trkpt lat="46.28556" lon="6.74216">
        <ele>959.527605</ele>
        <time>2022-07-15T20:15:09.074Z</time>
      </trkpt>
      <trkpt lat="46.28556" lon="6.74236">
        <ele>959.899317</ele>
        <time>2022-07-15T20:15:15.697Z</time>
      </trkpt>
      <trkpt lat="46.28597" lon="6.74375">
        <ele>962.330375</ele>
        <time>2022-07-15T20:16:05.044Z</time>
      </trkpt>
      <trkpt lat="46.28604" lon="6.74411">
        <ele>962.46029</ele>
        <time>2022-07-15T20:16:15.811Z</time>
      </trkpt>
      <trkpt lat="46.28607" lon="6.74457">
        <ele>962.616915</ele>
        <time>2022-07-15T20:16:27.954Z</time>
      </trkpt>
      <trkpt lat="46.2862" lon="6.74515">
        <ele>962.827611</ele>
        <time>2022-07-15T20:16:42.146Z</time>
      </trkpt>
      <trkpt lat="46.28642" lon="6.74551">
        <ele>962.99172</ele>
        <time>2022-07-15T20:16:51.878Z</time>
      </trkpt>
      <trkpt lat="46.28676" lon="6.74562">
        <ele>963.087047</ele>
        <time>2022-07-15T20:17:01.736Z</time>
      </trkpt>
      <trkpt lat="46.28757" lon="6.74547">
        <ele>962.049588</ele>
        <time>2022-07-15T20:17:24.431Z</time>
      </trkpt>
      <trkpt lat="46.28778" lon="6.7455">
        <ele>961.790713</ele>
        <time>2022-07-15T20:17:30.128Z</time>
      </trkpt>
      <trkpt lat="46.28789" lon="6.74558">
        <ele>961.631397</ele>
        <time>2022-07-15T20:17:33.733Z</time>
      </trkpt>
      <trkpt lat="46.28798" lon="6.74577">
        <ele>961.430294</ele>
        <time>2022-07-15T20:17:38.182Z</time>
      </trkpt>
      <trkpt lat="46.28806" lon="6.74623">
        <ele>961.010939</ele>
        <time>2022-07-15T20:17:47.904Z</time>
      </trkpt>
      <trkpt lat="46.28802" lon="6.7472">
        <ele>962.197071</ele>
        <time>2022-07-15T20:18:09.131Z</time>
      </trkpt>
      <trkpt lat="46.28808" lon="6.74756">
        <ele>962.806088</ele>
        <time>2022-07-15T20:18:19.662Z</time>
      </trkpt>
      <trkpt lat="46.28832" lon="6.74788">
        <ele>963.580565</ele>
        <time>2022-07-15T20:18:35.901Z</time>
      </trkpt>
      <trkpt lat="46.28886" lon="6.7481">
        <ele>964.923821</ele>
        <time>2022-07-15T20:19:06.549Z</time>
      </trkpt>
      <trkpt lat="46.28915" lon="6.74833">
        <ele>966.143275</ele>
        <time>2022-07-15T20:19:24.414Z</time>
      </trkpt>
      <trkpt lat="46.28924" lon="6.74851">
        <ele>966.789525</ele>
        <time>2022-07-15T20:19:31.301Z</time>
      </trkpt>
      <trkpt lat="46.28927" lon="6.7488">
        <ele>967.64523</ele>
        <time>2022-07-15T20:19:43.950Z</time>
      </trkpt>
      <trkpt lat="46.28911" lon="6.74942">
        <ele>969.555476</ele>
        <time>2022-07-15T20:20:06.791Z</time>
      </trkpt>
      <trkpt lat="46.28916" lon="6.75006">
        <ele>971.433483</ele>
        <time>2022-07-15T20:20:30.406Z</time>
      </trkpt>
      <trkpt lat="46.28931" lon="6.75044">
        <ele>972.683654</ele>
        <time>2022-07-15T20:20:46.781Z</time>
      </trkpt>
      <trkpt lat="46.2896" lon="6.75071">
        <ele>973.864479</ele>
        <time>2022-07-15T20:21:05.983Z</time>
      </trkpt>
      <trkpt lat="46.28963" lon="6.75082">
        <ele>974.145899</ele>
        <time>2022-07-15T20:21:09.633Z</time>
      </trkpt>
      <trkpt lat="46.28958" lon="6.75096">
        <ele>974.529596</ele>
        <time>2022-07-15T20:21:14.574Z</time>
      </trkpt>
      <trkpt lat="46.28933" lon="6.75127">
        <ele>975.65935</ele>
        <time>2022-07-15T20:21:29.666Z</time>
      </trkpt>
      <trkpt lat="46.28929" lon="6.75154">
        <ele>976.312736</ele>
        <time>2022-07-15T20:21:38.776Z</time>
      </trkpt>
      <trkpt lat="46.28942" lon="6.75177">
        <ele>976.996518</ele>
        <time>2022-07-15T20:21:48.011Z</time>
      </trkpt>
      <trkpt lat="46.29007" lon="6.75215">
        <ele>979.06345</ele>
        <time>2022-07-15T20:22:21.799Z</time>
      </trkpt>
      <trkpt lat="46.29016" lon="6.75237">
        <ele>979.28207</ele>
        <time>2022-07-15T20:22:30.878Z</time>
      </trkpt>
      <trkpt lat="46.29013" lon="6.7529">
        <ele>979.738712</ele>
        <time>2022-07-15T20:22:48.947Z</time>
      </trkpt>
      <trkpt lat="46.28993" lon="6.75387">
        <ele>980.610637</ele>
        <time>2022-07-15T20:23:13.717Z</time>
      </trkpt>
      <trkpt lat="46.28997" lon="6.75436">
        <ele>981.034991</ele>
        <time>2022-07-15T20:23:23.546Z</time>
      </trkpt>
      <trkpt lat="46.29008" lon="6.75463">
        <ele>980.785073</ele>
        <time>2022-07-15T20:23:30.084Z</time>
      </trkpt>
      <trkpt lat="46.29097" lon="6.75567">
        <ele>978.593262</ele>
        <time>2022-07-15T20:24:01.266Z</time>
      </trkpt>
      <trkpt lat="46.29114" lon="6.75609">
        <ele>977.940448</ele>
        <time>2022-07-15T20:24:10.128Z</time>
      </trkpt>
      <trkpt lat="46.29136" lon="6.75663">
        <ele>977.985429</ele>
        <time>2022-07-15T20:24:21.192Z</time>
      </trkpt>
      <trkpt lat="46.29157" lon="6.7569">
        <ele>978.333083</ele>
        <time>2022-07-15T20:24:29.580Z</time>
      </trkpt>
      <trkpt lat="46.29193" lon="6.75718">
        <ele>978.837422</ele>
        <time>2022-07-15T20:24:45.243Z</time>
      </trkpt>
      <trkpt lat="46.29234" lon="6.75765">
        <ele>979.478089</ele>
        <time>2022-07-15T20:25:13.003Z</time>
      </trkpt>
      <trkpt lat="46.29252" lon="6.75811">
        <ele>979.980507</ele>
        <time>2022-07-15T20:25:30.304Z</time>
      </trkpt>
      <trkpt lat="46.29248" lon="6.7584">
        <ele>980.411317</ele>
        <time>2022-07-15T20:25:38.391Z</time>
      </trkpt>
      <trkpt lat="46.29226" lon="6.75862">
        <ele>980.981799</ele>
        <time>2022-07-15T20:25:49.044Z</time>
      </trkpt>
      <trkpt lat="46.29215" lon="6.7592">
        <ele>981.863861</ele>
        <time>2022-07-15T20:26:04.493Z</time>
      </trkpt>
      <trkpt lat="46.2922" lon="6.75953">
        <ele>982.357373</ele>
        <time>2022-07-15T20:26:13.521Z</time>
      </trkpt>
      <trkpt lat="46.29234" lon="6.75983">
        <ele>982.881016</ele>
        <time>2022-07-15T20:26:22.885Z</time>
      </trkpt>
      <trkpt lat="46.29251" lon="6.7599">
        <ele>983.257773</ele>
        <time>2022-07-15T20:26:30.684Z</time>
      </trkpt>
      <trkpt lat="46.29281" lon="6.75967">
        <ele>983.543637</ele>
        <time>2022-07-15T20:26:42.957Z</time>
      </trkpt>
      <trkpt lat="46.29305" lon="6.75933">
        <ele>983.213518</ele>
        <time>2022-07-15T20:26:53.559Z</time>
      </trkpt>
      <trkpt lat="46.29318" lon="6.75942">
        <ele>983.068179</ele>
        <time>2022-07-15T20:26:57.531Z</time>
      </trkpt>
      <trkpt lat="46.29339" lon="6.76013">
        <ele>982.54102</ele>
        <time>2022-07-15T20:27:12.006Z</time>
      </trkpt>
      <trkpt lat="46.29343" lon="6.76058">
        <ele>982.229117</ele>
        <time>2022-07-15T20:27:21.070Z</time>
      </trkpt>
      <trkpt lat="46.29339" lon="6.76121">
        <ele>981.808592</ele>
        <time>2022-07-15T20:27:33.620Z</time>
      </trkpt>
      <trkpt lat="46.2936" lon="6.76208">
        <ele>981.256536</ele>
        <time>2022-07-15T20:27:52.013Z</time>
      </trkpt>
      <trkpt lat="46.29377" lon="6.76201">
        <ele>981.103286</ele>
        <time>2022-07-15T20:27:55.092Z</time>
      </trkpt>
      <trkpt lat="46.29398" lon="6.76188">
        <ele>980.898673</ele>
        <time>2022-07-15T20:27:59.403Z</time>
      </trkpt>
      <trkpt lat="46.29413" lon="6.76323">
        <ele>980.499242</ele>
        <time>2022-07-15T20:28:17.184Z</time>
      </trkpt>
      <trkpt lat="46.29405" lon="6.76404">
        <ele>980.807717</ele>
        <time>2022-07-15T20:28:29.090Z</time>
      </trkpt>
      <trkpt lat="46.29393" lon="6.76445">
        <ele>980.9726</ele>
        <time>2022-07-15T20:28:36.809Z</time>
      </trkpt>
      <trkpt lat="46.29373" lon="6.76487">
        <ele>981.16395</ele>
        <time>2022-07-15T20:28:46.013Z</time>
      </trkpt>
      <trkpt lat="46.29374" lon="6.76566">
        <ele>981.900086</ele>
        <time>2022-07-15T20:29:00.577Z</time>
      </trkpt>
      <trkpt lat="46.29373" lon="6.76627">
        <ele>982.811289</ele>
        <time>2022-07-15T20:29:17.478Z</time>
      </trkpt>
      <trkpt lat="46.29335" lon="6.76737">
        <ele>984.634825</ele>
        <time>2022-07-15T20:29:52.970Z</time>
      </trkpt>
      <trkpt lat="46.29323" lon="6.7679">
        <ele>985.688931</ele>
        <time>2022-07-15T20:30:12.745Z</time>
      </trkpt>
      <trkpt lat="46.29318" lon="6.76844">
        <ele>987.09563</ele>
        <time>2022-07-15T20:30:31.677Z</time>
      </trkpt>
      <trkpt lat="46.29289" lon="6.7687">
        <ele>988.363301</ele>
        <time>2022-07-15T20:30:48.939Z</time>
      </trkpt>
      <trkpt lat="46.2929" lon="6.76879">
        <ele>988.612753</ele>
        <time>2022-07-15T20:30:51.366Z</time>
      </trkpt>
      <trkpt lat="46.29311" lon="6.76906">
        <ele>989.680867</ele>
        <time>2022-07-15T20:31:06.881Z</time>
      </trkpt>
      <trkpt lat="46.29319" lon="6.76909">
        <ele>989.989635</ele>
        <time>2022-07-15T20:31:10.100Z</time>
      </trkpt>
      <trkpt lat="46.29322" lon="6.76909">
        <ele>990.083977</ele>
        <time>2022-07-15T20:31:11.013Z</time>
      </trkpt>
      <trkpt lat="46.29317" lon="6.76947">
        <ele>991.074329</ele>
        <time>2022-07-15T20:31:26.768Z</time>
      </trkpt>
      <trkpt lat="46.29275" lon="6.77045">
        <ele>992.901762</ele>
        <time>2022-07-15T20:32:07.735Z</time>
      </trkpt>
      <trkpt lat="46.29271" lon="6.77102">
        <ele>993.557844</ele>
        <time>2022-07-15T20:32:24.120Z</time>
      </trkpt>
      <trkpt lat="46.29274" lon="6.77112">
        <ele>993.686752</ele>
        <time>2022-07-15T20:32:27.896Z</time>
      </trkpt>
      <trkpt lat="46.29325" lon="6.77162">
        <ele>994.709121</ele>
        <time>2022-07-15T20:32:47.136Z</time>
      </trkpt>
      <trkpt lat="46.29352" lon="6.77221">
        <ele>996.127562</ele>
        <time>2022-07-15T20:33:00.733Z</time>
      </trkpt>
      <trkpt lat="46.2936" lon="6.77266">
        <ele>997.250943</ele>
        <time>2022-07-15T20:33:10.393Z</time>
      </trkpt>
      <trkpt lat="46.29371" lon="6.7739">
        <ele>1000.258298</ele>
        <time>2022-07-15T20:33:51.276Z</time>
      </trkpt>
      <trkpt lat="46.2937" lon="6.77434">
        <ele>1001.755061</ele>
        <time>2022-07-15T20:34:13.832Z</time>
      </trkpt>
      <trkpt lat="46.29362" lon="6.77458">
        <ele>1005.435749</ele>
        <time>2022-07-15T20:34:31.281Z</time>
      </trkpt>
      <trkpt lat="46.29356" lon="6.77456">
        <ele>1006.554059</ele>
        <time>2022-07-15T20:34:37.003Z</time>
      </trkpt>
      <trkpt lat="46.29346" lon="6.77453">
        <ele>1008.490127</ele>
        <time>2022-07-15T20:34:47.187Z</time>
      </trkpt>
      <trkpt lat="46.29338" lon="6.77449">
        <ele>1010.269088</ele>
        <time>2022-07-15T20:34:57.421Z</time>
      </trkpt>
      <trkpt lat="46.29267" lon="6.77457">
        <ele>1024.020719</ele>
        <time>2022-07-15T20:36:32.100Z</time>
      </trkpt>
      <trkpt lat="46.29151" lon="6.7748">
        <ele>1048.648207</ele>
        <time>2022-07-15T20:39:24.473Z</time>
      </trkpt>
      <trkpt lat="46.29148" lon="6.77482">
        <ele>1049.428239</ele>
        <time>2022-07-15T20:39:29.450Z</time>
      </trkpt>
      <trkpt lat="46.29107" lon="6.77397">
        <ele>1065.727794</ele>
        <time>2022-07-15T20:41:14.128Z</time>
      </trkpt>
      <trkpt lat="46.291" lon="6.77211">
        <ele>1088.418873</ele>
        <time>2022-07-15T20:43:37.299Z</time>
      </trkpt>
      <trkpt lat="46.29075" lon="6.7711">
        <ele>1098.994251</ele>
        <time>2022-07-15T20:44:36.873Z</time>
      </trkpt>
      <trkpt lat="46.29061" lon="6.77015">
        <ele>1107.088281</ele>
        <time>2022-07-15T20:45:22.052Z</time>
      </trkpt>
      <trkpt lat="46.29038" lon="6.76955">
        <ele>1112.109422</ele>
        <time>2022-07-15T20:45:53.628Z</time>
      </trkpt>
      <trkpt lat="46.29031" lon="6.76873">
        <ele>1118.152119</ele>
        <time>2022-07-15T20:46:40.174Z</time>
      </trkpt>
      <trkpt lat="46.29001" lon="6.76774">
        <ele>1125.492011</ele>
        <time>2022-07-15T20:47:36.809Z</time>
      </trkpt>
      <trkpt lat="46.28966" lon="6.76719">
        <ele>1130.132141</ele>
        <time>2022-07-15T20:48:09.565Z</time>
      </trkpt>
      <trkpt lat="46.28955" lon="6.76715">
        <ele>1131.174228</ele>
        <time>2022-07-15T20:48:15.309Z</time>
      </trkpt>
      <trkpt lat="46.28948" lon="6.76723">
        <ele>1132.04135</ele>
        <time>2022-07-15T20:48:19.939Z</time>
      </trkpt>
      <trkpt lat="46.28957" lon="6.76774">
        <ele>1135.349579</ele>
        <time>2022-07-15T20:48:43.319Z</time>
      </trkpt>
      <trkpt lat="46.28956" lon="6.76809">
        <ele>1137.583496</ele>
        <time>2022-07-15T20:49:00.720Z</time>
      </trkpt>
      <trkpt lat="46.28976" lon="6.76878">
        <ele>1140.562713</ele>
        <time>2022-07-15T20:49:33.477Z</time>
      </trkpt>
      <trkpt lat="46.28972" lon="6.7689">
        <ele>1141.033225</ele>
        <time>2022-07-15T20:49:38.743Z</time>
      </trkpt>
      <trkpt lat="46.28964" lon="6.76893">
        <ele>1141.507399</ele>
        <time>2022-07-15T20:49:42.843Z</time>
      </trkpt>
      <trkpt lat="46.28901" lon="6.7672">
        <ele>1149.265708</ele>
        <time>2022-07-15T20:50:29.460Z</time>
      </trkpt>
      <trkpt lat="46.28896" lon="6.76716">
        <ele>1149.807903</ele>
        <time>2022-07-15T20:50:34.274Z</time>
      </trkpt>
      <trkpt lat="46.28888" lon="6.7672">
        <ele>1150.517842</ele>
        <time>2022-07-15T20:50:39.506Z</time>
      </trkpt>
      <trkpt lat="46.28886" lon="6.76735">
        <ele>1151.446269</ele>
        <time>2022-07-15T20:50:45.436Z</time>
      </trkpt>
      <trkpt lat="46.28895" lon="6.76784">
        <ele>1154.495197</ele>
        <time>2022-07-15T20:51:07.646Z</time>
      </trkpt>
      <trkpt lat="46.28894" lon="6.76852">
        <ele>1158.538766</ele>
        <time>2022-07-15T20:51:38.659Z</time>
      </trkpt>
      <trkpt lat="46.28912" lon="6.76912">
        <ele>1162.460252</ele>
        <time>2022-07-15T20:52:13.516Z</time>
      </trkpt>
      <trkpt lat="46.28908" lon="6.76925">
        <ele>1163.362449</ele>
        <time>2022-07-15T20:52:21.135Z</time>
      </trkpt>
      <trkpt lat="46.28898" lon="6.76931">
        <ele>1164.650811</ele>
        <time>2022-07-15T20:52:29.041Z</time>
      </trkpt>
      <trkpt lat="46.28885" lon="6.76921">
        <ele>1166.358149</ele>
        <time>2022-07-15T20:52:41.141Z</time>
      </trkpt>
      <trkpt lat="46.28822" lon="6.76721">
        <ele>1184.15734</ele>
        <time>2022-07-15T20:54:44.355Z</time>
      </trkpt>
      <trkpt lat="46.28804" lon="6.76693">
        <ele>1187.086049</ele>
        <time>2022-07-15T20:55:03.871Z</time>
      </trkpt>
      <trkpt lat="46.28735" lon="6.76636">
        <ele>1195.791194</ele>
        <time>2022-07-15T20:55:59.835Z</time>
      </trkpt>
      <trkpt lat="46.28684" lon="6.76606">
        <ele>1201.799568</ele>
        <time>2022-07-15T20:56:38.916Z</time>
      </trkpt>
      <trkpt lat="46.28683" lon="6.76604">
        <ele>1202.044629</ele>
        <time>2022-07-15T20:56:40.845Z</time>
      </trkpt>
      <trkpt lat="46.28667" lon="6.76577">
        <ele>1204.90528</ele>
        <time>2022-07-15T20:57:00.689Z</time>
      </trkpt>
      <trkpt lat="46.2866" lon="6.76575">
        <ele>1205.770387</ele>
        <time>2022-07-15T20:57:06.228Z</time>
      </trkpt>
      <trkpt lat="46.2865" lon="6.76586">
        <ele>1207.529913</ele>
        <time>2022-07-15T20:57:18.018Z</time>
      </trkpt>
      <trkpt lat="46.28647" lon="6.76604">
        <ele>1209.177529</ele>
        <time>2022-07-15T20:57:28.565Z</time>
      </trkpt>
      <trkpt lat="46.28664" lon="6.76714">
        <ele>1219.716004</ele>
        <time>2022-07-15T20:58:40.261Z</time>
      </trkpt>
      <trkpt lat="46.2866" lon="6.76756">
        <ele>1223.6546</ele>
        <time>2022-07-15T20:59:06.761Z</time>
      </trkpt>
      <trkpt lat="46.28649" lon="6.76893">
        <ele>1234.496501</ele>
        <time>2022-07-15T21:00:29.929Z</time>
      </trkpt>
      <trkpt lat="46.28653" lon="6.76916">
        <ele>1236.152501</ele>
        <time>2022-07-15T21:00:42.171Z</time>
      </trkpt>
      <trkpt lat="46.2868" lon="6.76979">
        <ele>1241.436904</ele>
        <time>2022-07-15T21:01:17.080Z</time>
      </trkpt>
      <trkpt lat="46.28683" lon="6.77036">
        <ele>1245.429678</ele>
        <time>2022-07-15T21:01:40.325Z</time>
      </trkpt>
      <trkpt lat="46.28694" lon="6.77079">
        <ele>1247.94169</ele>
        <time>2022-07-15T21:01:57.511Z</time>
      </trkpt>
      <trkpt lat="46.28687" lon="6.7718">
        <ele>1252.308836</ele>
        <time>2022-07-15T21:02:32.042Z</time>
      </trkpt>
      <trkpt lat="46.28695" lon="6.77363">
        <ele>1260.476262</ele>
        <time>2022-07-15T21:03:35.710Z</time>
      </trkpt>
      <trkpt lat="46.28691" lon="6.77382">
        <ele>1261.46228</ele>
        <time>2022-07-15T21:03:42.661Z</time>
      </trkpt>
      <trkpt lat="46.28663" lon="6.77427">
        <ele>1264.361966</ele>
        <time>2022-07-15T21:04:04.579Z</time>
      </trkpt>
      <trkpt lat="46.28621" lon="6.77447">
        <ele>1267.473282</ele>
        <time>2022-07-15T21:04:32.559Z</time>
      </trkpt>
      <trkpt lat="46.28615" lon="6.77464">
        <ele>1268.405471</ele>
        <time>2022-07-15T21:04:41.018Z</time>
      </trkpt>
      <trkpt lat="46.28628" lon="6.77516">
        <ele>1270.850329</ele>
        <time>2022-07-15T21:05:02.880Z</time>
      </trkpt>
      <trkpt lat="46.28654" lon="6.77572">
        <ele>1272.690828</ele>
        <time>2022-07-15T21:05:26.904Z</time>
      </trkpt>
      <trkpt lat="46.28655" lon="6.77599">
        <ele>1273.464293</ele>
        <time>2022-07-15T21:05:37.988Z</time>
      </trkpt>
      <trkpt lat="46.28654" lon="6.77631">
        <ele>1274.335484</ele>
        <time>2022-07-15T21:05:48.467Z</time>
      </trkpt>
      <trkpt lat="46.28649" lon="6.77698">
        <ele>1276.187377</ele>
        <time>2022-07-15T21:06:04.052Z</time>
      </trkpt>
      <trkpt lat="46.28632" lon="6.77757">
        <ele>1277.754438</ele>
        <time>2022-07-15T21:06:12.404Z</time>
      </trkpt>
      <trkpt lat="46.28629" lon="6.77836">
        <ele>1277.856995</ele>
        <time>2022-07-15T21:06:22.738Z</time>
      </trkpt>
      <trkpt lat="46.28617" lon="6.77914">
        <ele>1277.959203</ele>
        <time>2022-07-15T21:06:31.577Z</time>
      </trkpt>
      <trkpt lat="46.28596" lon="6.77957">
        <ele>1278.028438</ele>
        <time>2022-07-15T21:06:41.628Z</time>
      </trkpt>
      <trkpt lat="46.28577" lon="6.77977">
        <ele>1278.07148</ele>
        <time>2022-07-15T21:06:49.630Z</time>
      </trkpt>
      <trkpt lat="46.28483" lon="6.77998">
        <ele>1284.205816</ele>
        <time>2022-07-15T21:07:24.176Z</time>
      </trkpt>
      <trkpt lat="46.28471" lon="6.78016">
        <ele>1285.384514</ele>
        <time>2022-07-15T21:07:38.090Z</time>
      </trkpt>
      <trkpt lat="46.28464" lon="6.78058">
        <ele>1287.395784</ele>
        <time>2022-07-15T21:08:01.138Z</time>
      </trkpt>
      <trkpt lat="46.28489" lon="6.78143">
        <ele>1291.400467</ele>
        <time>2022-07-15T21:08:48.669Z</time>
      </trkpt>
      <trkpt lat="46.28502" lon="6.78242">
        <ele>1295.202301</ele>
        <time>2022-07-15T21:09:28.212Z</time>
      </trkpt>
      <trkpt lat="46.28505" lon="6.78267">
        <ele>1296.156191</ele>
        <time>2022-07-15T21:09:37.995Z</time>
      </trkpt>
      <trkpt lat="46.28527" lon="6.78342">
        <ele>1299.194657</ele>
        <time>2022-07-15T21:10:00.870Z</time>
      </trkpt>
      <trkpt lat="46.28548" lon="6.78381">
        <ele>1300.047983</ele>
        <time>2022-07-15T21:10:15.061Z</time>
      </trkpt>
      <trkpt lat="46.28579" lon="6.78426">
        <ele>1300.178839</ele>
        <time>2022-07-15T21:10:28.939Z</time>
      </trkpt>
      <trkpt lat="46.28611" lon="6.78505">
        <ele>1300.37</ele>
        <time>2022-07-15T21:10:46.733Z</time>
      </trkpt>
      <trkpt lat="46.28614" lon="6.78611">
        <ele>1301.278347</ele>
        <time>2022-07-15T21:11:12.245Z</time>
      </trkpt>
      <trkpt lat="46.28593" lon="6.7876">
        <ele>1305.228109</ele>
        <time>2022-07-15T21:12:07.993Z</time>
      </trkpt>
      <trkpt lat="46.2858" lon="6.78844">
        <ele>1307.270045</ele>
        <time>2022-07-15T21:12:44.079Z</time>
      </trkpt>
      <trkpt lat="46.28572" lon="6.78953">
        <ele>1307.277939</ele>
        <time>2022-07-15T21:13:21.264Z</time>
      </trkpt>
      <trkpt lat="46.28554" lon="6.79052">
        <ele>1307.285278</ele>
        <time>2022-07-15T21:13:42.536Z</time>
      </trkpt>
      <trkpt lat="46.28422" lon="6.79521">
        <ele>1284.660998</ele>
        <time>2022-07-15T21:15:01.459Z</time>
      </trkpt>
      <trkpt lat="46.28358" lon="6.7969">
        <ele>1275.870441</ele>
        <time>2022-07-15T21:15:32.684Z</time>
      </trkpt>
      <trkpt lat="46.28309" lon="6.79754">
        <ele>1271.641113</ele>
        <time>2022-07-15T21:15:48.226Z</time>
      </trkpt>
      <trkpt lat="46.28287" lon="6.79799">
        <ele>1268.994496</ele>
        <time>2022-07-15T21:15:56.653Z</time>
      </trkpt>
      <trkpt lat="46.2824" lon="6.79855">
        <ele>1264.547501</ele>
        <time>2022-07-15T21:16:09.894Z</time>
      </trkpt>
      <trkpt lat="46.28214" lon="6.79911">
        <ele>1261.195729</ele>
        <time>2022-07-15T21:16:19.980Z</time>
      </trkpt>
      <trkpt lat="46.28186" lon="6.79955">
        <ele>1258.138746</ele>
        <time>2022-07-15T21:16:29.881Z</time>
      </trkpt>
      <trkpt lat="46.28162" lon="6.79972">
        <ele>1257.655797</ele>
        <time>2022-07-15T21:16:36.939Z</time>
      </trkpt>
      <trkpt lat="46.28116" lon="6.79957">
        <ele>1258.647376</ele>
        <time>2022-07-15T21:16:49.875Z</time>
      </trkpt>
      <trkpt lat="46.2809" lon="6.79939">
        <ele>1259.263668</ele>
        <time>2022-07-15T21:17:00.084Z</time>
      </trkpt>
      <trkpt lat="46.28014" lon="6.79882">
        <ele>1261.079154</ele>
        <time>2022-07-15T21:17:50.483Z</time>
      </trkpt>
      <trkpt lat="46.27897" lon="6.79895">
        <ele>1270.973851</ele>
        <time>2022-07-15T21:19:21.559Z</time>
      </trkpt>
      <trkpt lat="46.27917" lon="6.7992">
        <ele>1273.241159</ele>
        <time>2022-07-15T21:19:46.878Z</time>
      </trkpt>
      <trkpt lat="46.2797" lon="6.79964">
        <ele>1277.017043</ele>
        <time>2022-07-15T21:20:32.411Z</time>
      </trkpt>
      <trkpt lat="46.27974" lon="6.79995">
        <ele>1277.379312</ele>
        <time>2022-07-15T21:20:40.385Z</time>
      </trkpt>
      <trkpt lat="46.27964" lon="6.8001">
        <ele>1277.624819</ele>
        <time>2022-07-15T21:20:52.885Z</time>
      </trkpt>
      <trkpt lat="46.27936" lon="6.80001">
        <ele>1278.100841</ele>
        <time>2022-07-15T21:21:03.253Z</time>
      </trkpt>
      <trkpt lat="46.27919" lon="6.80004">
        <ele>1278.374891</ele>
        <time>2022-07-15T21:21:09.797Z</time>
      </trkpt>
      <trkpt lat="46.27913" lon="6.80018">
        <ele>1278.563901</ele>
        <time>2022-07-15T21:21:12.720Z</time>
      </trkpt>
      <trkpt lat="46.27917" lon="6.80036">
        <ele>1278.777663</ele>
        <time>2022-07-15T21:21:22.403Z</time>
      </trkpt>
      <trkpt lat="46.27927" lon="6.80051">
        <ele>1279.015992</ele>
        <time>2022-07-15T21:21:26.789Z</time>
      </trkpt>
      <trkpt lat="46.27958" lon="6.80078">
        <ele>1279.621471</ele>
        <time>2022-07-15T21:21:37.034Z</time>
      </trkpt>
      <trkpt lat="46.28036" lon="6.80116">
        <ele>1271.828171</ele>
        <time>2022-07-15T21:21:54.761Z</time>
      </trkpt>
      <trkpt lat="46.28063" lon="6.80162">
        <ele>1267.735893</ele>
        <time>2022-07-15T21:22:03.352Z</time>
      </trkpt>
      <trkpt lat="46.28072" lon="6.80206">
        <ele>1264.577777</ele>
        <time>2022-07-15T21:22:10.001Z</time>
      </trkpt>
      <trkpt lat="46.28058" lon="6.80284">
        <ele>1258.730308</ele>
        <time>2022-07-15T21:22:21.860Z</time>
      </trkpt>
      <trkpt lat="46.28046" lon="6.80321">
        <ele>1255.664462</ele>
        <time>2022-07-15T21:22:28.013Z</time>
      </trkpt>
      <trkpt lat="46.28034" lon="6.80335">
        <ele>1253.896298</ele>
        <time>2022-07-15T21:22:31.215Z</time>
      </trkpt>
      <trkpt lat="46.27985" lon="6.80368">
        <ele>1247.865423</ele>
        <time>2022-07-15T21:22:42.518Z</time>
      </trkpt>
      <trkpt lat="46.27951" lon="6.80416">
        <ele>1242.680258</ele>
        <time>2022-07-15T21:22:52.595Z</time>
      </trkpt>
      <trkpt lat="46.27925" lon="6.8044">
        <ele>1239.583666</ele>
        <time>2022-07-15T21:22:59.531Z</time>
      </trkpt>
      <trkpt lat="46.27919" lon="6.8046">
        <ele>1238.063758</ele>
        <time>2022-07-15T21:23:02.671Z</time>
      </trkpt>
      <trkpt lat="46.27921" lon="6.80505">
        <ele>1234.988971</ele>
        <time>2022-07-15T21:23:09.544Z</time>
      </trkpt>
      <trkpt lat="46.27929" lon="6.80525">
        <ele>1233.352353</ele>
        <time>2022-07-15T21:23:13.238Z</time>
      </trkpt>
      <trkpt lat="46.27949" lon="6.80516">
        <ele>1231.337592</ele>
        <time>2022-07-15T21:23:17.653Z</time>
      </trkpt>
      <trkpt lat="46.27944" lon="6.80539">
        <ele>1229.693181</ele>
        <time>2022-07-15T21:23:21.335Z</time>
      </trkpt>
      <trkpt lat="46.27946" lon="6.80594">
        <ele>1225.906219</ele>
        <time>2022-07-15T21:23:29.559Z</time>
      </trkpt>
      <trkpt lat="46.2795" lon="6.8061">
        <ele>1224.769522</ele>
        <time>2022-07-15T21:23:31.934Z</time>
      </trkpt>
      <trkpt lat="46.27978" lon="6.80636">
        <ele>1220.315457</ele>
        <time>2022-07-15T21:23:38.732Z</time>
      </trkpt>
      <trkpt lat="46.27985" lon="6.80634">
        <ele>1219.250789</ele>
        <time>2022-07-15T21:23:40.325Z</time>
      </trkpt>
      <trkpt lat="46.28003" lon="6.80612">
        <ele>1215.883677</ele>
        <time>2022-07-15T21:23:45.296Z</time>
      </trkpt>
      <trkpt lat="46.28009" lon="6.80624">
        <ele>1214.420388</ele>
        <time>2022-07-15T21:23:47.465Z</time>
      </trkpt>
      <trkpt lat="46.27991" lon="6.80698">
        <ele>1206.844037</ele>
        <time>2022-07-15T21:23:58.393Z</time>
      </trkpt>
      <trkpt lat="46.27986" lon="6.8072">
        <ele>1204.556792</ele>
        <time>2022-07-15T21:24:01.633Z</time>
      </trkpt>
      <trkpt lat="46.27931" lon="6.80873">
        <ele>1188.443232</ele>
        <time>2022-07-15T21:24:25.437Z</time>
      </trkpt>
      <trkpt lat="46.27909" lon="6.80897">
        <ele>1184.819652</ele>
        <time>2022-07-15T21:24:30.927Z</time>
      </trkpt>
      <trkpt lat="46.27809" lon="6.80956">
        <ele>1173.527723</ele>
        <time>2022-07-15T21:24:54.197Z</time>
      </trkpt>
      <trkpt lat="46.27771" lon="6.81046">
        <ele>1170.254059</ele>
        <time>2022-07-15T21:25:13.797Z</time>
      </trkpt>
      <trkpt lat="46.27759" lon="6.81103">
        <ele>1168.411509</ele>
        <time>2022-07-15T21:25:24.878Z</time>
      </trkpt>
      <trkpt lat="46.27731" lon="6.81132">
        <ele>1166.847087</ele>
        <time>2022-07-15T21:25:33.789Z</time>
      </trkpt>
      <trkpt lat="46.27694" lon="6.81145">
        <ele>1164.67409</ele>
        <time>2022-07-15T21:25:43.651Z</time>
      </trkpt>
      <trkpt lat="46.27688" lon="6.81152">
        <ele>1164.270891</ele>
        <time>2022-07-15T21:25:45.278Z</time>
      </trkpt>
      <trkpt lat="46.27689" lon="6.81161">
        <ele>1163.899928</ele>
        <time>2022-07-15T21:25:46.766Z</time>
      </trkpt>
      <trkpt lat="46.27723" lon="6.8123">
        <ele>1160.603302</ele>
        <time>2022-07-15T21:26:00.197Z</time>
      </trkpt>
      <trkpt lat="46.27744" lon="6.81307">
        <ele>1157.389887</ele>
        <time>2022-07-15T21:26:13.194Z</time>
      </trkpt>
      <trkpt lat="46.27744" lon="6.81332">
        <ele>1156.393465</ele>
        <time>2022-07-15T21:26:17.411Z</time>
      </trkpt>
      <trkpt lat="46.27723" lon="6.81413">
        <ele>1153.052309</ele>
        <time>2022-07-15T21:26:31.404Z</time>
      </trkpt>
      <trkpt lat="46.27697" lon="6.81455">
        <ele>1150.82797</ele>
        <time>2022-07-15T21:26:41.023Z</time>
      </trkpt>
      <trkpt lat="46.27675" lon="6.81518">
        <ele>1148.092045</ele>
        <time>2022-07-15T21:26:52.485Z</time>
      </trkpt>
      <trkpt lat="46.27656" lon="6.81544">
        <ele>1146.63232</ele>
        <time>2022-07-15T21:26:58.470Z</time>
      </trkpt>
      <trkpt lat="46.27646" lon="6.81668">
        <ele>1140.594804</ele>
        <time>2022-07-15T21:27:19.039Z</time>
      </trkpt>
      <trkpt lat="46.27607" lon="6.81772">
        <ele>1134.905413</ele>
        <time>2022-07-15T21:27:37.149Z</time>
      </trkpt>
      <trkpt lat="46.27594" lon="6.81841">
        <ele>1131.309962</ele>
        <time>2022-07-15T21:27:47.968Z</time>
      </trkpt>
      <trkpt lat="46.27562" lon="6.81898">
        <ele>1127.502413</ele>
        <time>2022-07-15T21:27:59.334Z</time>
      </trkpt>
      <trkpt lat="46.27534" lon="6.81971">
        <ele>1123.259886</ele>
        <time>2022-07-15T21:28:12.240Z</time>
      </trkpt>
      <trkpt lat="46.27518" lon="6.82036">
        <ele>1120.17902</ele>
        <time>2022-07-15T21:28:23.554Z</time>
      </trkpt>
      <trkpt lat="46.27494" lon="6.8207">
        <ele>1118.663901</ele>
        <time>2022-07-15T21:28:31.615Z</time>
      </trkpt>
      <trkpt lat="46.27488" lon="6.82092">
        <ele>1117.928976</ele>
        <time>2022-07-15T21:28:35.590Z</time>
      </trkpt>
      <trkpt lat="46.2749" lon="6.82098">
        <ele>1117.697285</ele>
        <time>2022-07-15T21:28:36.722Z</time>
      </trkpt>
      <trkpt lat="46.27456" lon="6.82159">
        <ele>1115.287695</ele>
        <time>2022-07-15T21:28:50.284Z</time>
      </trkpt>
      <trkpt lat="46.27434" lon="6.82236">
        <ele>1112.720213</ele>
        <time>2022-07-15T21:29:04.690Z</time>
      </trkpt>
      <trkpt lat="46.27387" lon="6.82357">
        <ele>1108.987607</ele>
        <time>2022-07-15T21:29:29.940Z</time>
      </trkpt>
      <trkpt lat="46.27361" lon="6.82452">
        <ele>1106.257846</ele>
        <time>2022-07-15T21:29:47.450Z</time>
      </trkpt>
      <trkpt lat="46.27334" lon="6.82518">
        <ele>1103.279169</ele>
        <time>2022-07-15T21:29:59.911Z</time>
      </trkpt>
      <trkpt lat="46.27317" lon="6.8263">
        <ele>1098.532497</ele>
        <time>2022-07-15T21:30:17.921Z</time>
      </trkpt>
      <trkpt lat="46.27272" lon="6.82741">
        <ele>1094.590294</ele>
        <time>2022-07-15T21:30:38.802Z</time>
      </trkpt>
      <trkpt lat="46.27222" lon="6.82825">
        <ele>1093.509264</ele>
        <time>2022-07-15T21:30:58.409Z</time>
      </trkpt>
      <trkpt lat="46.27146" lon="6.82912">
        <ele>1093.382665</ele>
        <time>2022-07-15T21:31:40.751Z</time>
      </trkpt>
      <trkpt lat="46.27124" lon="6.82954">
        <ele>1094.725763</ele>
        <time>2022-07-15T21:32:01.347Z</time>
      </trkpt>
      <trkpt lat="46.27106" lon="6.82974">
        <ele>1095.552621</ele>
        <time>2022-07-15T21:32:15.199Z</time>
      </trkpt>
      <trkpt lat="46.27071" lon="6.83005">
        <ele>1097.047034</ele>
        <time>2022-07-15T21:32:39.059Z</time>
      </trkpt>
      <trkpt lat="46.27036" lon="6.83055">
        <ele>1098.845708</ele>
        <time>2022-07-15T21:33:05.590Z</time>
      </trkpt>
      <trkpt lat="46.26983" lon="6.83098">
        <ele>1097.460203</ele>
        <time>2022-07-15T21:33:24.421Z</time>
      </trkpt>
      <trkpt lat="46.26918" lon="6.83167">
        <ele>1095.095233</ele>
        <time>2022-07-15T21:33:44.950Z</time>
      </trkpt>
      <trkpt lat="46.2689" lon="6.83196">
        <ele>1094.116639</ele>
        <time>2022-07-15T21:33:49.815Z</time>
      </trkpt>
      <trkpt lat="46.26884" lon="6.8321">
        <ele>1093.711149</ele>
        <time>2022-07-15T21:33:51.554Z</time>
      </trkpt>
      <trkpt lat="46.26873" lon="6.83251">
        <ele>1091.954736</ele>
        <time>2022-07-15T21:33:55.861Z</time>
      </trkpt>
      <trkpt lat="46.26883" lon="6.83288">
        <ele>1090.375193</ele>
        <time>2022-07-15T21:33:59.659Z</time>
      </trkpt>
      <trkpt lat="46.26881" lon="6.83297">
        <ele>1089.995086</ele>
        <time>2022-07-15T21:34:00.641Z</time>
      </trkpt>
      <trkpt lat="46.26843" lon="6.83331">
        <ele>1087.377098</ele>
        <time>2022-07-15T21:34:06.944Z</time>
      </trkpt>
      <trkpt lat="46.26819" lon="6.83357">
        <ele>1085.622367</ele>
        <time>2022-07-15T21:34:11.284Z</time>
      </trkpt>
      <trkpt lat="46.2681" lon="6.83402">
        <ele>1083.712233</ele>
        <time>2022-07-15T21:34:16.732Z</time>
      </trkpt>
      <trkpt lat="46.26743" lon="6.83441">
        <ele>1083.405917</ele>
        <time>2022-07-15T21:34:28.057Z</time>
      </trkpt>
      <trkpt lat="46.26711" lon="6.83448">
        <ele>1083.449101</ele>
        <time>2022-07-15T21:34:33.952Z</time>
      </trkpt>
      <trkpt lat="46.26667" lon="6.83459">
        <ele>1083.510545</ele>
        <time>2022-07-15T21:34:45.485Z</time>
      </trkpt>
      <trkpt lat="46.26599" lon="6.83475">
        <ele>1084.895892</ele>
        <time>2022-07-15T21:35:09.056Z</time>
      </trkpt>
      <trkpt lat="46.26566" lon="6.83474">
        <ele>1086.31728</ele>
        <time>2022-07-15T21:35:22.056Z</time>
      </trkpt>
      <trkpt lat="46.26495" lon="6.83451">
        <ele>1089.468786</ele>
        <time>2022-07-15T21:35:54.085Z</time>
      </trkpt>
      <trkpt lat="46.26451" lon="6.83438">
        <ele>1091.368943</ele>
        <time>2022-07-15T21:36:14.506Z</time>
      </trkpt>
      <trkpt lat="46.263" lon="6.83373">
        <ele>1097.713248</ele>
        <time>2022-07-15T21:37:18.797Z</time>
      </trkpt>
      <trkpt lat="46.26261" lon="6.83373">
        <ele>1098.837527</ele>
        <time>2022-07-15T21:37:31.041Z</time>
      </trkpt>
      <trkpt lat="46.26225" lon="6.83356">
        <ele>1099.449432</ele>
        <time>2022-07-15T21:37:42.320Z</time>
      </trkpt>
      <trkpt lat="46.26137" lon="6.83293">
        <ele>1100.987909</ele>
        <time>2022-07-15T21:38:06.659Z</time>
      </trkpt>
      <trkpt lat="46.26069" lon="6.8322">
        <ele>1102.206048</ele>
        <time>2022-07-15T21:38:26.493Z</time>
      </trkpt>
      <trkpt lat="46.25959" lon="6.83143">
        <ele>1103.894798</ele>
        <time>2022-07-15T21:38:59.493Z</time>
      </trkpt>
      <trkpt lat="46.25907" lon="6.83067">
        <ele>1105.61885</ele>
        <time>2022-07-15T21:39:20.273Z</time>
      </trkpt>
      <trkpt lat="46.25872" lon="6.83002">
        <ele>1106.959098</ele>
        <time>2022-07-15T21:39:38.569Z</time>
      </trkpt>
      <trkpt lat="46.25865" lon="6.82958">
        <ele>1107.68529</ele>
        <time>2022-07-15T21:39:49.177Z</time>
      </trkpt>
      <trkpt lat="46.25852" lon="6.82941">
        <ele>1108.093469</ele>
        <time>2022-07-15T21:39:57.802Z</time>
      </trkpt>
      <trkpt lat="46.25853" lon="6.82921">
        <ele>1108.509845</ele>
        <time>2022-07-15T21:40:03.855Z</time>
      </trkpt>
      <trkpt lat="46.25836" lon="6.82896">
        <ele>1109.210604</ele>
        <time>2022-07-15T21:40:11.916Z</time>
      </trkpt>
      <trkpt lat="46.25781" lon="6.82806">
        <ele>1111.672254</ele>
        <time>2022-07-15T21:40:38.095Z</time>
      </trkpt>
      <trkpt lat="46.25758" lon="6.82713">
        <ele>1113.381417</ele>
        <time>2022-07-15T21:41:03.294Z</time>
      </trkpt>
      <trkpt lat="46.25749" lon="6.82686">
        <ele>1113.381417</ele>
        <time>2022-07-15T21:41:11.712Z</time>
      </trkpt>
      <trkpt lat="46.25734" lon="6.82663">
        <ele>1113.381417</ele>
        <time>2022-07-15T21:41:20.156Z</time>
      </trkpt>
      <trkpt lat="46.25655" lon="6.82591">
        <ele>1113.381417</ele>
        <time>2022-07-15T21:41:47.018Z</time>
      </trkpt>
      <trkpt lat="46.25646" lon="6.82586">
        <ele>1113.381417</ele>
        <time>2022-07-15T21:41:49.995Z</time>
      </trkpt>
      <trkpt lat="46.25646" lon="6.82603">
        <ele>1113.381417</ele>
        <time>2022-07-15T21:41:53.111Z</time>
      </trkpt>
      <trkpt lat="46.25643" lon="6.82618">
        <ele>1113.381417</ele>
        <time>2022-07-15T21:41:55.590Z</time>
      </trkpt>
      <trkpt lat="46.25641" lon="6.82631">
        <ele>1113.381417</ele>
        <time>2022-07-15T21:41:58.230Z</time>
      </trkpt>
      <trkpt lat="46.25641" lon="6.82634">
        <ele>1113.381417</ele>
        <time>2022-07-15T21:41:58.921Z</time>
      </trkpt>
      <trkpt lat="46.2564" lon="6.82639">
        <ele>1113.381417</ele>
        <time>2022-07-15T21:42:00.108Z</time>
      </trkpt>
      <trkpt lat="46.25677" lon="6.82682">
        <ele>1113.381417</ele>
        <time>2022-07-15T21:42:11.733Z</time>
      </trkpt>
      <trkpt lat="46.25685" lon="6.82692">
        <ele>1113.381417</ele>
        <time>2022-07-15T21:42:13.702Z</time>
      </trkpt>
    </trkseg>
  </trk>
</gpx>